ARG1876 SABE-SAWH
Flight info
| Callsign | ARG1876 |
|---|---|
| Flight time | N/A |
| Altitude | 38000 |
| Route | PTA8 GBE UP664 DIL UT662 ASKAS UT704 DABLI |
| Aircraft | 738M/M-SDE3FGHIM1M2RWXYZ/C |
Departure
| Time | N/A |
|---|---|
| Airport | Aeroparque Jorge Newbery (SABE) |
Arrival
| Time | 2026-05-04 16:10 |
|---|---|
| Airport | Ushuaia - Malvinas Argentinas International Airport (SAWH) |
| Time | Latitude | Longitude | Altitude | Speed | Heading |
|---|---|---|---|---|---|
| 2026-05-04 12:51 | -34.55832 | -58.41218 | 0 ft | 0 kts | 37° |
| 2026-05-04 12:58 | -34.55834 | -58.41220 | 0 ft | 3 kts | 37° |
| 2026-05-04 12:58 | -34.55849 | -58.41234 | 0 ft | 3 kts | 37° |
| 2026-05-04 12:58 | -34.55864 | -58.41247 | 0 ft | 3 kts | 37° |
| 2026-05-04 12:59 | -34.55878 | -58.41261 | 0 ft | 3 kts | 37° |
| 2026-05-04 12:59 | -34.55892 | -58.41273 | 0 ft | 0 kts | 37° |
| 2026-05-04 12:59 | -34.55850 | -58.41282 | 0 ft | 15 kts | 320° |
| 2026-05-04 12:59 | -34.55800 | -58.41365 | 0 ft | 10 kts | 302° |
| 2026-05-04 13:00 | -34.55771 | -58.41421 | 0 ft | 6 kts | 302° |
| 2026-05-04 13:00 | -34.55749 | -58.41465 | 0 ft | 9 kts | 302° |
| 2026-05-04 13:00 | -34.55726 | -58.41536 | 0 ft | 8 kts | 256° |
| 2026-05-04 13:00 | -34.55757 | -58.41570 | 0 ft | 7 kts | 210° |
| 2026-05-04 13:01 | -34.55786 | -58.41627 | 0 ft | 10 kts | 282° |
| 2026-05-04 13:01 | -34.55751 | -58.41718 | 0 ft | 14 kts | 298° |
| 2026-05-04 13:01 | -34.55694 | -58.41831 | 0 ft | 17 kts | 304° |
| 2026-05-04 13:01 | -34.55622 | -58.41960 | 0 ft | 19 kts | 304° |
| 2026-05-04 13:02 | -34.55540 | -58.42099 | 0 ft | 21 kts | 306° |
| 2026-05-04 13:02 | -34.55467 | -58.42220 | 0 ft | 8 kts | 306° |
| 2026-05-04 13:02 | -34.55423 | -58.42292 | 0 ft | 16 kts | 306° |
| 2026-05-04 13:02 | -34.55366 | -58.42402 | 0 ft | 15 kts | 285° |
| 2026-05-04 13:03 | -34.55382 | -58.42490 | 0 ft | 6 kts | 200° |
| 2026-05-04 13:03 | -34.55499 | -58.42337 | 0 ft | 55 kts | 124° |
| 2026-05-04 13:03 | -34.55887 | -58.41638 | 0 ft | 145 kts | 124° |
| 2026-05-04 13:03 | -34.56610 | -58.40357 | 0 ft | 214 kts | 125° |
| 2026-05-04 13:04 | -34.57429 | -58.38761 | 0 ft | 223 kts | 115° |
| 2026-05-04 13:04 | -34.57886 | -58.37078 | 0 ft | 204 kts | 103° |
| 2026-05-04 13:04 | -34.58058 | -58.35261 | 0 ft | 233 kts | 89° |
| 2026-05-04 13:04 | -34.57847 | -58.33252 | 0 ft | 249 kts | 77° |
| 2026-05-04 13:05 | -34.57356 | -58.31100 | 0 ft | 279 kts | 72° |
| 2026-05-04 13:05 | -34.56669 | -58.28811 | 0 ft | 300 kts | 60° |
| 2026-05-04 13:05 | -34.55226 | -58.27119 | 0 ft | 284 kts | 26° |
| 2026-05-04 13:05 | -34.53333 | -58.26551 | 0 ft | 284 kts | 357° |
| 2026-05-04 13:06 | -34.51456 | -58.27141 | 0 ft | 287 kts | 329° |
| 2026-05-04 13:06 | -34.49740 | -58.28438 | 0 ft | 294 kts | 335° |
| 2026-05-04 13:06 | -34.47713 | -58.28836 | 0 ft | 302 kts | 5° |
| 2026-05-04 13:06 | -34.45652 | -58.28065 | 0 ft | 321 kts | 30° |
| 2026-05-04 13:07 | -34.43968 | -58.26266 | 0 ft | 336 kts | 53° |
| 2026-05-04 13:07 | -34.42946 | -58.23675 | 0 ft | 348 kts | 76° |
| 2026-05-04 13:07 | -34.42800 | -58.20707 | 0 ft | 358 kts | 98° |
| 2026-05-04 13:07 | -34.43583 | -58.17827 | 0 ft | 364 kts | 120° |
| 2026-05-04 13:08 | -34.45197 | -58.15451 | 0 ft | 368 kts | 141° |
| 2026-05-04 13:08 | -34.47392 | -58.13919 | 0 ft | 372 kts | 162° |
| 2026-05-04 13:08 | -34.49947 | -58.13403 | 0 ft | 375 kts | 182° |
| 2026-05-04 13:08 | -34.52573 | -58.13643 | 0 ft | 380 kts | 186° |
| 2026-05-04 13:09 | -34.55222 | -58.13941 | 0 ft | 385 kts | 186° |
| 2026-05-04 13:09 | -34.57917 | -58.14226 | 0 ft | 391 kts | 185° |
| 2026-05-04 13:09 | -34.60654 | -58.14406 | 0 ft | 397 kts | 179° |
| 2026-05-04 13:09 | -34.63394 | -58.13822 | 0 ft | 403 kts | 165° |
| 2026-05-04 13:10 | -34.66087 | -58.12761 | 0 ft | 409 kts | 160° |
| 2026-05-04 13:10 | -34.68728 | -58.11418 | 0 ft | 413 kts | 156° |
| 2026-05-04 13:10 | -34.71347 | -58.09922 | 0 ft | 417 kts | 155° |
| 2026-05-04 13:10 | -34.73962 | -58.08345 | 0 ft | 421 kts | 153° |
| 2026-05-04 13:11 | -34.76470 | -58.06484 | 0 ft | 425 kts | 145° |
| 2026-05-04 13:11 | -34.78958 | -58.04499 | 0 ft | 429 kts | 149° |
| 2026-05-04 13:11 | -34.81494 | -58.02540 | 0 ft | 433 kts | 147° |
| 2026-05-04 13:11 | -34.83994 | -58.00530 | 0 ft | 437 kts | 148° |
| 2026-05-04 13:12 | -34.86574 | -57.98531 | 0 ft | 441 kts | 147° |
| 2026-05-04 13:12 | -34.89158 | -57.96472 | 0 ft | 445 kts | 147° |
| 2026-05-04 13:12 | -34.91783 | -57.94418 | 0 ft | 449 kts | 147° |
| 2026-05-04 13:12 | -34.94419 | -57.92332 | 0 ft | 453 kts | 148° |
| 2026-05-04 13:13 | -34.97298 | -57.90750 | 0 ft | 456 kts | 166° |
| 2026-05-04 13:13 | -35.00399 | -57.90318 | 0 ft | 454 kts | 184° |
| 2026-05-04 13:13 | -35.03498 | -57.90995 | 0 ft | 457 kts | 199° |
| 2026-05-04 13:13 | -35.06386 | -57.92743 | 0 ft | 470 kts | 216° |
| 2026-05-04 13:14 | -35.08923 | -57.95277 | 0 ft | 473 kts | 221° |
| 2026-05-04 13:14 | -35.11440 | -57.97872 | 0 ft | 472 kts | 220° |
| 2026-05-04 13:14 | -35.13991 | -58.00386 | 0 ft | 469 kts | 218° |
| 2026-05-04 13:14 | -35.16582 | -58.02801 | 0 ft | 467 kts | 217° |
| 2026-05-04 13:15 | -35.19191 | -58.05173 | 0 ft | 467 kts | 217° |
| 2026-05-04 13:15 | -35.21841 | -58.07476 | 0 ft | 467 kts | 212° |
| 2026-05-04 13:15 | -35.24657 | -58.09438 | 0 ft | 464 kts | 211° |
| 2026-05-04 13:15 | -35.27406 | -58.11516 | 0 ft | 466 kts | 211° |
| 2026-05-04 13:16 | -35.30186 | -58.13493 | 0 ft | 470 kts | 211° |
| 2026-05-04 13:16 | -35.33001 | -58.15565 | 0 ft | 472 kts | 212° |
| 2026-05-04 13:16 | -35.35822 | -58.17619 | 0 ft | 470 kts | 211° |
| 2026-05-04 13:16 | -35.38629 | -58.19671 | 0 ft | 468 kts | 211° |
| 2026-05-04 13:17 | -35.41424 | -58.21716 | 0 ft | 467 kts | 211° |
| 2026-05-04 13:17 | -35.44218 | -58.23762 | 0 ft | 467 kts | 211° |
| 2026-05-04 13:17 | -35.46981 | -58.25785 | 0 ft | 468 kts | 211° |
| 2026-05-04 13:17 | -35.49782 | -58.27841 | 0 ft | 469 kts | 211° |
| 2026-05-04 13:18 | -35.52590 | -58.29900 | 0 ft | 469 kts | 211° |
| 2026-05-04 13:18 | -35.55385 | -58.31955 | 0 ft | 468 kts | 211° |
| 2026-05-04 13:18 | -35.58180 | -58.34009 | 0 ft | 468 kts | 211° |
| 2026-05-04 13:18 | -35.60967 | -58.36061 | 0 ft | 467 kts | 211° |
| 2026-05-04 13:19 | -35.63761 | -58.38116 | 0 ft | 468 kts | 211° |
| 2026-05-04 13:19 | -35.66556 | -58.40178 | 0 ft | 468 kts | 211° |
| 2026-05-04 13:19 | -35.69352 | -58.42239 | 0 ft | 469 kts | 211° |
| 2026-05-04 13:19 | -35.72154 | -58.44294 | 0 ft | 469 kts | 209° |
| 2026-05-04 13:20 | -35.75113 | -58.45992 | 0 ft | 469 kts | 203° |
| 2026-05-04 13:20 | -35.78100 | -58.47474 | 0 ft | 469 kts | 201° |
| 2026-05-04 13:20 | -35.81221 | -58.48633 | 0 ft | 469 kts | 194° |
| 2026-05-04 13:20 | -35.84364 | -58.49743 | 0 ft | 469 kts | 198° |
| 2026-05-04 13:21 | -35.87515 | -58.50859 | 0 ft | 470 kts | 195° |
| 2026-05-04 13:21 | -35.90665 | -58.51948 | 0 ft | 470 kts | 197° |
| 2026-05-04 13:21 | -35.93805 | -58.53073 | 0 ft | 470 kts | 196° |
| 2026-05-04 13:21 | -35.96952 | -58.54171 | 0 ft | 469 kts | 197° |
| 2026-05-04 13:22 | -36.00059 | -58.55278 | 0 ft | 469 kts | 196° |
| 2026-05-04 13:22 | -36.03210 | -58.56386 | 0 ft | 469 kts | 197° |
| 2026-05-04 13:22 | -36.06349 | -58.57502 | 0 ft | 469 kts | 196° |
| 2026-05-04 13:22 | -36.09491 | -58.58611 | 0 ft | 470 kts | 197° |
| 2026-05-04 13:23 | -36.12641 | -58.59732 | 0 ft | 470 kts | 196° |
| 2026-05-04 13:23 | -36.15782 | -58.60843 | 0 ft | 470 kts | 197° |
| 2026-05-04 13:23 | -36.18928 | -58.61964 | 0 ft | 469 kts | 196° |
| 2026-05-04 13:23 | -36.22041 | -58.63067 | 0 ft | 469 kts | 197° |
| 2026-05-04 13:24 | -36.25189 | -58.64191 | 0 ft | 469 kts | 196° |
| 2026-05-04 13:24 | -36.28298 | -58.65294 | 0 ft | 469 kts | 197° |
| 2026-05-04 13:24 | -36.31444 | -58.66419 | 0 ft | 470 kts | 196° |
| 2026-05-04 13:25 | -36.37736 | -58.68664 | 0 ft | 470 kts | 196° |
| 2026-05-04 13:25 | -36.40838 | -58.69769 | 0 ft | 469 kts | 197° |
| 2026-05-04 13:25 | -36.44016 | -58.70908 | 0 ft | 469 kts | 196° |
| 2026-05-04 13:25 | -36.47112 | -58.72014 | 0 ft | 469 kts | 197° |
| 2026-05-04 13:26 | -36.50243 | -58.73138 | 0 ft | 469 kts | 197° |
| 2026-05-04 13:26 | -36.53396 | -58.74266 | 0 ft | 470 kts | 197° |
| 2026-05-04 13:26 | -36.56534 | -58.75394 | 0 ft | 470 kts | 197° |
| 2026-05-04 13:26 | -36.59694 | -58.76527 | 0 ft | 470 kts | 197° |
| 2026-05-04 13:27 | -36.62840 | -58.77659 | 0 ft | 469 kts | 197° |
| 2026-05-04 13:27 | -36.65941 | -58.78773 | 0 ft | 469 kts | 197° |
| 2026-05-04 13:27 | -36.69088 | -58.79907 | 0 ft | 469 kts | 197° |
| 2026-05-04 13:27 | -36.72223 | -58.81036 | 0 ft | 469 kts | 197° |
| 2026-05-04 13:28 | -36.75367 | -58.82170 | 0 ft | 470 kts | 197° |
| 2026-05-04 13:28 | -36.78507 | -58.83303 | 0 ft | 470 kts | 197° |
| 2026-05-04 13:28 | -36.81606 | -58.84423 | 0 ft | 470 kts | 197° |
| 2026-05-04 13:28 | -36.84745 | -58.85558 | 0 ft | 469 kts | 197° |
| 2026-05-04 13:29 | -36.87895 | -58.86697 | 0 ft | 469 kts | 197° |
| 2026-05-04 13:29 | -36.91038 | -58.87837 | 0 ft | 469 kts | 197° |
| 2026-05-04 13:29 | -36.94172 | -58.88971 | 0 ft | 469 kts | 197° |
| 2026-05-04 13:29 | -36.97310 | -58.90111 | 0 ft | 469 kts | 197° |
| 2026-05-04 13:30 | -37.00453 | -58.91250 | 0 ft | 470 kts | 197° |
| 2026-05-04 13:30 | -37.03551 | -58.92378 | 0 ft | 470 kts | 197° |
| 2026-05-04 13:30 | -37.06698 | -58.93521 | 0 ft | 470 kts | 197° |
| 2026-05-04 13:30 | -37.09840 | -58.94667 | 0 ft | 469 kts | 197° |
| 2026-05-04 13:31 | -37.12942 | -58.95794 | 0 ft | 469 kts | 197° |
| 2026-05-04 13:31 | -37.16070 | -58.96938 | 0 ft | 469 kts | 197° |
| 2026-05-04 13:31 | -37.19246 | -58.98094 | 0 ft | 469 kts | 197° |
| 2026-05-04 13:31 | -37.22348 | -58.99230 | 0 ft | 470 kts | 197° |
| 2026-05-04 13:32 | -37.25488 | -59.00375 | 0 ft | 470 kts | 197° |
| 2026-05-04 13:32 | -37.28626 | -59.01527 | 0 ft | 470 kts | 197° |
| 2026-05-04 13:32 | -37.31769 | -59.02674 | 0 ft | 469 kts | 197° |
| 2026-05-04 13:32 | -37.34908 | -59.03829 | 0 ft | 469 kts | 197° |
| 2026-05-04 13:33 | -37.38004 | -59.04961 | 0 ft | 469 kts | 197° |
| 2026-05-04 13:33 | -37.41146 | -59.06119 | 0 ft | 469 kts | 197° |
| 2026-05-04 13:33 | -37.44290 | -59.07270 | 0 ft | 470 kts | 197° |
| 2026-05-04 13:33 | -37.47431 | -59.08429 | 0 ft | 470 kts | 197° |
| 2026-05-04 13:34 | -37.50574 | -59.09582 | 0 ft | 470 kts | 197° |
| 2026-05-04 13:34 | -37.53712 | -59.10743 | 0 ft | 469 kts | 197° |
| 2026-05-04 13:34 | -37.56845 | -59.11894 | 0 ft | 469 kts | 197° |
| 2026-05-04 13:34 | -37.59939 | -59.13041 | 0 ft | 469 kts | 197° |
| 2026-05-04 13:35 | -37.63086 | -59.14198 | 0 ft | 469 kts | 197° |
| 2026-05-04 13:35 | -37.69360 | -59.16519 | 0 ft | 470 kts | 197° |
| 2026-05-04 13:35 | -37.72493 | -59.17686 | 0 ft | 470 kts | 197° |
| 2026-05-04 13:36 | -37.75640 | -59.18846 | 0 ft | 469 kts | 197° |
| 2026-05-04 13:36 | -37.78733 | -59.20000 | 0 ft | 469 kts | 197° |
| 2026-05-04 13:36 | -37.81877 | -59.21162 | 0 ft | 469 kts | 197° |
| 2026-05-04 13:36 | -37.85003 | -59.22330 | 0 ft | 469 kts | 197° |
| 2026-05-04 13:37 | -37.88140 | -59.23491 | 0 ft | 469 kts | 197° |
| 2026-05-04 13:37 | -37.91281 | -59.24667 | 0 ft | 470 kts | 197° |
| 2026-05-04 13:37 | -37.94423 | -59.25832 | 0 ft | 470 kts | 197° |
| 2026-05-04 13:37 | -37.96501 | -59.26613 | 0 ft | 470 kts | 197° |
| 2026-05-04 13:38 | -38.00648 | -59.28156 | 0 ft | 469 kts | 197° |
| 2026-05-04 13:38 | -38.03776 | -59.29330 | 0 ft | 469 kts | 197° |
| 2026-05-04 13:38 | -38.06923 | -59.30502 | 0 ft | 469 kts | 197° |
| 2026-05-04 13:38 | -38.10053 | -59.31679 | 0 ft | 469 kts | 197° |
| 2026-05-04 13:39 | -38.13195 | -59.32852 | 0 ft | 470 kts | 197° |
| 2026-05-04 13:39 | -38.16302 | -59.34022 | 0 ft | 470 kts | 197° |
| 2026-05-04 13:39 | -38.19438 | -59.35194 | 0 ft | 470 kts | 197° |
| 2026-05-04 13:39 | -38.22569 | -59.36375 | 0 ft | 469 kts | 197° |
| 2026-05-04 13:40 | -38.25699 | -59.37548 | 0 ft | 469 kts | 197° |
| 2026-05-04 13:40 | -38.28829 | -59.38730 | 0 ft | 469 kts | 197° |
| 2026-05-04 13:40 | -38.31962 | -59.39907 | 0 ft | 469 kts | 197° |
| 2026-05-04 13:40 | -38.35094 | -59.41092 | 0 ft | 470 kts | 197° |
| 2026-05-04 13:41 | -38.38230 | -59.42271 | 0 ft | 470 kts | 197° |
| 2026-05-04 13:41 | -38.41371 | -59.43462 | 0 ft | 470 kts | 197° |
| 2026-05-04 13:41 | -38.44507 | -59.44644 | 0 ft | 469 kts | 197° |
| 2026-05-04 13:42 | -38.50723 | -59.46998 | 0 ft | 469 kts | 197° |
| 2026-05-04 13:42 | -38.53861 | -59.48191 | 0 ft | 469 kts | 197° |
| 2026-05-04 13:42 | -38.57000 | -59.49379 | 0 ft | 470 kts | 197° |
| 2026-05-04 13:42 | -38.60102 | -59.50560 | 0 ft | 470 kts | 197° |
| 2026-05-04 13:43 | -38.63236 | -59.51749 | 0 ft | 470 kts | 197° |
| 2026-05-04 13:43 | -38.66371 | -59.52944 | 0 ft | 469 kts | 197° |
| 2026-05-04 13:43 | -38.69503 | -59.54135 | 0 ft | 469 kts | 197° |
| 2026-05-04 13:43 | -38.71574 | -59.54928 | 0 ft | 469 kts | 197° |
| 2026-05-04 13:44 | -38.74701 | -59.56115 | 0 ft | 469 kts | 197° |
| 2026-05-04 13:44 | -38.78856 | -59.57705 | 0 ft | 470 kts | 197° |
| 2026-05-04 13:44 | -38.81996 | -59.58905 | 0 ft | 470 kts | 197° |
| 2026-05-04 13:44 | -38.84083 | -59.59706 | 0 ft | 470 kts | 197° |
| 2026-05-04 13:45 | -38.87216 | -59.60901 | 0 ft | 469 kts | 197° |
| 2026-05-04 13:45 | -38.90344 | -59.62104 | 0 ft | 469 kts | 197° |
| 2026-05-04 13:45 | -38.93474 | -59.63300 | 0 ft | 469 kts | 197° |
| 2026-05-04 13:45 | -38.96601 | -59.64506 | 0 ft | 469 kts | 197° |
| 2026-05-04 13:46 | -38.99733 | -59.65704 | 0 ft | 469 kts | 197° |
| 2026-05-04 13:46 | -39.02859 | -59.66911 | 0 ft | 470 kts | 197° |
| 2026-05-04 13:46 | -39.05958 | -59.68099 | 0 ft | 470 kts | 197° |
| 2026-05-04 13:46 | -39.09099 | -59.69314 | 0 ft | 470 kts | 197° |
| 2026-05-04 13:47 | -39.12235 | -59.70519 | 0 ft | 469 kts | 197° |
| 2026-05-04 13:47 | -39.15363 | -59.71731 | 0 ft | 469 kts | 197° |
| 2026-05-04 13:47 | -39.18494 | -59.72937 | 0 ft | 469 kts | 197° |
| 2026-05-04 13:47 | -39.21629 | -59.74154 | 0 ft | 469 kts | 197° |
| 2026-05-04 13:48 | -39.24755 | -59.75360 | 0 ft | 470 kts | 197° |
| 2026-05-04 13:48 | -39.27886 | -59.76576 | 0 ft | 470 kts | 197° |
| 2026-05-04 13:48 | -39.31018 | -59.77788 | 0 ft | 470 kts | 197° |
| 2026-05-04 13:48 | -39.34114 | -59.78993 | 0 ft | 469 kts | 197° |
| 2026-05-04 13:49 | -39.37246 | -59.80208 | 0 ft | 469 kts | 197° |
| 2026-05-04 13:49 | -39.40379 | -59.81428 | 0 ft | 469 kts | 197° |
| 2026-05-04 13:49 | -39.43507 | -59.82644 | 0 ft | 469 kts | 197° |
| 2026-05-04 13:49 | -39.46603 | -59.83852 | 0 ft | 470 kts | 197° |
| 2026-05-04 13:50 | -39.49722 | -59.85068 | 0 ft | 470 kts | 197° |
| 2026-05-04 13:50 | -39.52860 | -59.86294 | 0 ft | 470 kts | 197° |
| 2026-05-04 13:50 | -39.55995 | -59.87518 | 0 ft | 469 kts | 197° |
| 2026-05-04 13:50 | -39.59129 | -59.88745 | 0 ft | 469 kts | 197° |
| 2026-05-04 13:51 | -39.62216 | -59.89953 | 0 ft | 469 kts | 197° |
| 2026-05-04 13:51 | -39.65339 | -59.91177 | 0 ft | 469 kts | 197° |
| 2026-05-04 13:51 | -39.68472 | -59.92405 | 0 ft | 469 kts | 197° |
| 2026-05-04 13:51 | -39.71604 | -59.93635 | 0 ft | 470 kts | 197° |
| 2026-05-04 13:52 | -39.77875 | -59.96100 | 0 ft | 469 kts | 197° |
| 2026-05-04 13:52 | -39.80974 | -59.97322 | 0 ft | 469 kts | 197° |
| 2026-05-04 13:52 | -39.84096 | -59.98551 | 0 ft | 469 kts | 197° |
| 2026-05-04 13:53 | -39.87217 | -59.99783 | 0 ft | 469 kts | 197° |
| 2026-05-04 13:53 | -39.90348 | -60.01018 | 0 ft | 469 kts | 197° |
| 2026-05-04 13:53 | -39.93482 | -60.02259 | 0 ft | 470 kts | 197° |
| 2026-05-04 13:54 | -39.99703 | -60.04721 | 0 ft | 469 kts | 198° |
| 2026-05-04 13:54 | -40.02827 | -60.05957 | 0 ft | 469 kts | 197° |
| 2026-05-04 13:54 | -40.09064 | -60.08432 | 0 ft | 469 kts | 197° |
| 2026-05-04 13:55 | -40.12186 | -60.09677 | 0 ft | 469 kts | 198° |
| 2026-05-04 13:55 | -40.18443 | -60.12168 | 0 ft | 470 kts | 198° |
| 2026-05-04 13:55 | -40.21573 | -60.13412 | 0 ft | 469 kts | 197° |
| 2026-05-04 13:56 | -40.24699 | -60.14663 | 0 ft | 469 kts | 198° |
| 2026-05-04 13:56 | -40.27782 | -60.15890 | 0 ft | 469 kts | 197° |
| 2026-05-04 13:56 | -40.34025 | -60.18388 | 0 ft | 469 kts | 197° |
| 2026-05-04 13:57 | -40.37159 | -60.19648 | 0 ft | 470 kts | 198° |
| 2026-05-04 13:57 | -40.40286 | -60.20897 | 0 ft | 470 kts | 197° |
| 2026-05-04 13:58 | -40.49671 | -60.24673 | 0 ft | 469 kts | 198° |
| 2026-05-04 13:58 | -40.55877 | -60.27172 | 0 ft | 469 kts | 198° |
| 2026-05-04 13:58 | -40.58997 | -60.28425 | 0 ft | 470 kts | 198° |
| 2026-05-04 13:59 | -40.62128 | -60.29695 | 0 ft | 470 kts | 198° |
| 2026-05-04 13:59 | -40.65268 | -60.30958 | 0 ft | 470 kts | 198° |
| 2026-05-04 13:59 | -40.71475 | -60.33470 | 0 ft | 469 kts | 198° |
| 2026-05-04 14:00 | -40.74598 | -60.34742 | 0 ft | 469 kts | 198° |
| 2026-05-04 14:00 | -40.80851 | -60.37280 | 0 ft | 469 kts | 198° |
| 2026-05-04 14:00 | -40.83938 | -60.38528 | 0 ft | 470 kts | 198° |
| 2026-05-04 14:01 | -40.87061 | -60.39806 | 0 ft | 470 kts | 198° |
| 2026-05-04 14:01 | -40.90226 | -60.41088 | 0 ft | 469 kts | 198° |
| 2026-05-04 14:01 | -40.96437 | -60.43622 | 0 ft | 469 kts | 198° |
| 2026-05-04 14:02 | -40.99562 | -60.44905 | 0 ft | 469 kts | 198° |
| 2026-05-04 14:02 | -41.02686 | -60.46176 | 0 ft | 469 kts | 198° |
| 2026-05-04 14:02 | -41.05807 | -60.47460 | 0 ft | 470 kts | 198° |
| 2026-05-04 14:02 | -41.08894 | -60.48718 | 0 ft | 470 kts | 198° |
| 2026-05-04 14:03 | -41.12021 | -60.50007 | 0 ft | 469 kts | 198° |
| 2026-05-04 14:03 | -41.15144 | -60.51283 | 0 ft | 469 kts | 198° |
| 2026-05-04 14:03 | -41.18262 | -60.52571 | 0 ft | 469 kts | 198° |
| 2026-05-04 14:03 | -41.21388 | -60.53851 | 0 ft | 469 kts | 198° |
| 2026-05-04 14:04 | -41.27606 | -60.56413 | 0 ft | 470 kts | 198° |
| 2026-05-04 14:04 | -41.30734 | -60.57709 | 0 ft | 470 kts | 198° |
| 2026-05-04 14:04 | -41.33863 | -60.58996 | 0 ft | 469 kts | 198° |
| 2026-05-04 14:05 | -41.40054 | -60.61557 | 0 ft | 469 kts | 198° |
| 2026-05-04 14:05 | -41.43170 | -60.62853 | 0 ft | 469 kts | 198° |
| 2026-05-04 14:05 | -41.46304 | -60.64148 | 0 ft | 469 kts | 198° |
| 2026-05-04 14:06 | -41.49423 | -60.65447 | 0 ft | 470 kts | 198° |
| 2026-05-04 14:06 | -41.52549 | -60.66741 | 0 ft | 470 kts | 198° |
| 2026-05-04 14:06 | -41.55668 | -60.68043 | 0 ft | 469 kts | 198° |
| 2026-05-04 14:06 | -41.58786 | -60.69337 | 0 ft | 469 kts | 198° |
| 2026-05-04 14:07 | -41.61868 | -60.70625 | 0 ft | 469 kts | 198° |
| 2026-05-04 14:07 | -41.64988 | -60.71924 | 0 ft | 469 kts | 198° |
| 2026-05-04 14:07 | -41.68102 | -60.73228 | 0 ft | 469 kts | 198° |
| 2026-05-04 14:07 | -41.71231 | -60.74533 | 0 ft | 470 kts | 198° |
| 2026-05-04 14:08 | -41.74306 | -60.75822 | 0 ft | 470 kts | 198° |
| 2026-05-04 14:08 | -41.77426 | -60.77126 | 0 ft | 470 kts | 198° |
| 2026-05-04 14:08 | -41.80545 | -60.78437 | 0 ft | 469 kts | 198° |
| 2026-05-04 14:08 | -41.83662 | -60.79743 | 0 ft | 469 kts | 198° |
| 2026-05-04 14:09 | -41.89893 | -60.82363 | 0 ft | 469 kts | 198° |
| 2026-05-04 14:09 | -41.92978 | -60.83663 | 0 ft | 470 kts | 198° |
| 2026-05-04 14:10 | -41.99230 | -60.86299 | 0 ft | 470 kts | 198° |
| 2026-05-04 14:10 | -42.02350 | -60.87616 | 0 ft | 469 kts | 198° |
| 2026-05-04 14:10 | -42.05462 | -60.88932 | 0 ft | 469 kts | 198° |
| 2026-05-04 14:10 | -42.08538 | -60.90234 | 0 ft | 469 kts | 198° |
| 2026-05-04 14:11 | -42.11660 | -60.91557 | 0 ft | 469 kts | 198° |
| 2026-05-04 14:11 | -42.17899 | -60.94204 | 0 ft | 470 kts | 198° |
| 2026-05-04 14:11 | -42.21020 | -60.95531 | 0 ft | 470 kts | 198° |
| 2026-05-04 14:12 | -42.24104 | -60.96842 | 0 ft | 469 kts | 198° |
| 2026-05-04 14:12 | -42.27219 | -60.98170 | 0 ft | 469 kts | 198° |
| 2026-05-04 14:12 | -42.33446 | -61.00825 | 0 ft | 469 kts | 198° |
| 2026-05-04 14:13 | -42.36563 | -61.02155 | 0 ft | 469 kts | 198° |
| 2026-05-04 14:13 | -42.39675 | -61.03488 | 0 ft | 470 kts | 198° |
| 2026-05-04 14:13 | -42.42799 | -61.04823 | 0 ft | 470 kts | 198° |
| 2026-05-04 14:13 | -42.45917 | -61.06162 | 0 ft | 469 kts | 198° |
| 2026-05-04 14:14 | -42.49032 | -61.07495 | 0 ft | 469 kts | 198° |
| 2026-05-04 14:14 | -42.55214 | -61.10151 | 0 ft | 469 kts | 198° |
| 2026-05-04 14:14 | -42.58325 | -61.11493 | 0 ft | 469 kts | 198° |
| 2026-05-04 14:15 | -42.64569 | -61.14184 | 0 ft | 470 kts | 198° |
| 2026-05-04 14:15 | -42.70755 | -61.16856 | 0 ft | 469 kts | 198° |
| 2026-05-04 14:16 | -42.76991 | -61.19555 | 0 ft | 469 kts | 198° |
| 2026-05-04 14:16 | -42.80109 | -61.20901 | 0 ft | 469 kts | 198° |
| 2026-05-04 14:17 | -42.86302 | -61.23590 | 0 ft | 470 kts | 198° |
| 2026-05-04 14:17 | -42.89417 | -61.24951 | 0 ft | 469 kts | 198° |
| 2026-05-04 14:17 | -42.95638 | -61.27660 | 0 ft | 468 kts | 198° |
| 2026-05-04 14:18 | -42.98752 | -61.29012 | 0 ft | 469 kts | 198° |
| 2026-05-04 14:18 | -43.04961 | -61.31725 | 0 ft | 470 kts | 198° |
| 2026-05-04 14:19 | -43.11190 | -61.34453 | 0 ft | 469 kts | 198° |
| 2026-05-04 14:19 | -43.14312 | -61.35828 | 0 ft | 469 kts | 198° |
| 2026-05-04 14:19 | -43.17381 | -61.37169 | 0 ft | 469 kts | 198° |
| 2026-05-04 14:19 | -43.20488 | -61.38541 | 0 ft | 469 kts | 198° |
| 2026-05-04 14:20 | -43.23606 | -61.39907 | 0 ft | 469 kts | 198° |
| 2026-05-04 14:20 | -43.26711 | -61.41281 | 0 ft | 470 kts | 198° |
| 2026-05-04 14:20 | -43.29835 | -61.42652 | 0 ft | 470 kts | 198° |
| 2026-05-04 14:21 | -43.36031 | -61.45388 | 0 ft | 469 kts | 198° |
| 2026-05-04 14:21 | -43.39141 | -61.46771 | 0 ft | 469 kts | 198° |
| 2026-05-04 14:21 | -43.42260 | -61.48145 | 0 ft | 469 kts | 198° |
| 2026-05-04 14:21 | -43.45325 | -61.49510 | 0 ft | 469 kts | 198° |
| 2026-05-04 14:22 | -43.48435 | -61.50884 | 0 ft | 469 kts | 198° |
| 2026-05-04 14:22 | -43.51547 | -61.52273 | 0 ft | 470 kts | 198° |
| 2026-05-04 14:22 | -43.54656 | -61.53649 | 0 ft | 470 kts | 198° |
| 2026-05-04 14:22 | -43.57762 | -61.55038 | 0 ft | 469 kts | 198° |
| 2026-05-04 14:23 | -43.63975 | -61.57809 | 0 ft | 469 kts | 198° |
| 2026-05-04 14:23 | -43.67083 | -61.59192 | 0 ft | 469 kts | 198° |
| 2026-05-04 14:23 | -43.70192 | -61.60587 | 0 ft | 469 kts | 198° |
| 2026-05-04 14:24 | -43.73306 | -61.61976 | 0 ft | 470 kts | 198° |
| 2026-05-04 14:24 | -43.76380 | -61.63358 | 0 ft | 470 kts | 198° |
| 2026-05-04 14:24 | -43.79495 | -61.64751 | 0 ft | 469 kts | 199° |
| 2026-05-04 14:24 | -43.82597 | -61.66149 | 0 ft | 469 kts | 198° |
| 2026-05-04 14:25 | -43.85709 | -61.67544 | 0 ft | 468 kts | 199° |
| 2026-05-04 14:25 | -43.91891 | -61.70329 | 0 ft | 469 kts | 199° |
| 2026-05-04 14:25 | -43.95009 | -61.71738 | 0 ft | 470 kts | 198° |
| 2026-05-04 14:26 | -43.98118 | -61.73139 | 0 ft | 470 kts | 199° |
| 2026-05-04 14:26 | -44.01192 | -61.74532 | 0 ft | 469 kts | 198° |
| 2026-05-04 14:26 | -44.04302 | -61.75937 | 0 ft | 469 kts | 199° |
| 2026-05-04 14:26 | -44.07402 | -61.77343 | 0 ft | 468 kts | 198° |
| 2026-05-04 14:27 | -44.10502 | -61.78748 | 0 ft | 469 kts | 199° |
| 2026-05-04 14:27 | -44.13608 | -61.80160 | 0 ft | 469 kts | 198° |
| 2026-05-04 14:27 | -44.16714 | -61.81570 | 0 ft | 470 kts | 199° |
| 2026-05-04 14:27 | -44.19825 | -61.82987 | 0 ft | 470 kts | 198° |
| 2026-05-04 14:28 | -44.22934 | -61.84403 | 0 ft | 469 kts | 199° |
| 2026-05-04 14:28 | -44.26039 | -61.85820 | 0 ft | 469 kts | 198° |
| 2026-05-04 14:28 | -44.29137 | -61.87234 | 0 ft | 468 kts | 199° |
| 2026-05-04 14:28 | -44.32239 | -61.88652 | 0 ft | 469 kts | 198° |
| 2026-05-04 14:29 | -44.38421 | -61.91483 | 0 ft | 470 kts | 198° |
| 2026-05-04 14:29 | -44.44642 | -61.94337 | 0 ft | 469 kts | 198° |
| 2026-05-04 14:30 | -44.47708 | -61.95748 | 0 ft | 469 kts | 199° |
| 2026-05-04 14:30 | -44.50810 | -61.97174 | 0 ft | 468 kts | 199° |
| 2026-05-04 14:30 | -44.57020 | -62.00036 | 0 ft | 469 kts | 199° |
| 2026-05-04 14:31 | -44.60122 | -62.01471 | 0 ft | 470 kts | 199° |
| 2026-05-04 14:31 | -44.66299 | -62.04328 | 0 ft | 469 kts | 199° |
| 2026-05-04 14:32 | -44.72500 | -62.07203 | 0 ft | 468 kts | 199° |
| 2026-05-04 14:32 | -44.75606 | -62.08642 | 0 ft | 469 kts | 199° |
| 2026-05-04 14:32 | -44.78707 | -62.10087 | 0 ft | 469 kts | 199° |
| 2026-05-04 14:32 | -44.81823 | -62.11533 | 0 ft | 470 kts | 199° |
| 2026-05-04 14:33 | -44.84884 | -62.12964 | 0 ft | 470 kts | 199° |
| 2026-05-04 14:33 | -44.87990 | -62.14408 | 0 ft | 469 kts | 199° |
| 2026-05-04 14:33 | -44.91095 | -62.15863 | 0 ft | 469 kts | 199° |
| 2026-05-04 14:33 | -44.94199 | -62.17309 | 0 ft | 468 kts | 199° |
| 2026-05-04 14:34 | -44.97289 | -62.18761 | 0 ft | 469 kts | 199° |
| 2026-05-04 14:34 | -45.00393 | -62.20209 | 0 ft | 469 kts | 199° |
| 2026-05-04 14:34 | -45.03488 | -62.21667 | 0 ft | 469 kts | 199° |
| 2026-05-04 14:34 | -45.06563 | -62.23105 | 0 ft | 470 kts | 199° |
| 2026-05-04 14:35 | -45.09663 | -62.24569 | 0 ft | 469 kts | 199° |
| 2026-05-04 14:35 | -45.12770 | -62.26025 | 0 ft | 469 kts | 199° |
| 2026-05-04 14:35 | -45.15867 | -62.27491 | 0 ft | 468 kts | 199° |
| 2026-05-04 14:35 | -45.18965 | -62.28946 | 0 ft | 468 kts | 199° |
| 2026-05-04 14:36 | -45.22058 | -62.30414 | 0 ft | 469 kts | 199° |
| 2026-05-04 14:36 | -45.25160 | -62.31874 | 0 ft | 469 kts | 199° |
| 2026-05-04 14:36 | -45.28220 | -62.33330 | 0 ft | 470 kts | 199° |
| 2026-05-04 14:36 | -45.31319 | -62.34792 | 0 ft | 470 kts | 199° |
| 2026-05-04 14:37 | -45.34418 | -62.36269 | 0 ft | 469 kts | 199° |
| 2026-05-04 14:37 | -45.37517 | -62.37735 | 0 ft | 469 kts | 199° |
| 2026-05-04 14:37 | -45.39573 | -62.38717 | 0 ft | 468 kts | 199° |
| 2026-05-04 14:37 | -45.43719 | -62.40686 | 0 ft | 469 kts | 199° |
| 2026-05-04 14:38 | -45.45766 | -62.41667 | 0 ft | 469 kts | 199° |
| 2026-05-04 14:38 | -45.49874 | -62.43622 | 0 ft | 470 kts | 199° |
| 2026-05-04 14:38 | -45.52972 | -62.45109 | 0 ft | 470 kts | 199° |
| 2026-05-04 14:38 | -45.56070 | -62.46585 | 0 ft | 469 kts | 199° |
| 2026-05-04 14:39 | -45.58120 | -62.47572 | 0 ft | 469 kts | 199° |
| 2026-05-04 14:39 | -45.61212 | -62.49049 | 0 ft | 468 kts | 199° |
| 2026-05-04 14:39 | -45.64308 | -62.50540 | 0 ft | 469 kts | 199° |
| 2026-05-04 14:40 | -45.70507 | -62.53520 | 0 ft | 470 kts | 199° |
| 2026-05-04 14:40 | -45.73574 | -62.54992 | 0 ft | 470 kts | 199° |
| 2026-05-04 14:40 | -45.76670 | -62.56490 | 0 ft | 469 kts | 199° |
| 2026-05-04 14:40 | -45.79764 | -62.57978 | 0 ft | 469 kts | 199° |
| 2026-05-04 14:41 | -45.82859 | -62.59480 | 0 ft | 468 kts | 199° |
| 2026-05-04 14:41 | -45.85956 | -62.60972 | 0 ft | 469 kts | 199° |
| 2026-05-04 14:41 | -45.92110 | -62.63954 | 0 ft | 470 kts | 199° |
| 2026-05-04 14:42 | -45.98323 | -62.66972 | 0 ft | 469 kts | 199° |
| 2026-05-04 14:42 | -46.01413 | -62.68483 | 0 ft | 469 kts | 199° |
| 2026-05-04 14:42 | -46.04511 | -62.69986 | 0 ft | 468 kts | 199° |
| 2026-05-04 14:43 | -46.07559 | -62.71480 | 0 ft | 468 kts | 199° |
| 2026-05-04 14:43 | -46.10653 | -62.72984 | 0 ft | 469 kts | 199° |
| 2026-05-04 14:43 | -46.13785 | -62.74522 | 0 ft | 469 kts | 199° |
| 2026-05-04 14:43 | -46.16839 | -62.76011 | 0 ft | 470 kts | 199° |
| 2026-05-04 14:44 | -46.19935 | -62.77535 | 0 ft | 469 kts | 199° |
| 2026-05-04 14:44 | -46.23039 | -62.79051 | 0 ft | 469 kts | 199° |
| 2026-05-04 14:44 | -46.26125 | -62.80574 | 0 ft | 468 kts | 199° |
| 2026-05-04 14:44 | -46.29223 | -62.82091 | 0 ft | 468 kts | 199° |
| 2026-05-04 14:45 | -46.32312 | -62.83619 | 0 ft | 469 kts | 199° |
| 2026-05-04 14:45 | -46.35400 | -62.85136 | 0 ft | 469 kts | 199° |
| 2026-05-04 14:45 | -46.38491 | -62.86668 | 0 ft | 470 kts | 199° |
| 2026-05-04 14:45 | -46.41582 | -62.88189 | 0 ft | 469 kts | 199° |
| 2026-05-04 14:46 | -46.44675 | -62.89726 | 0 ft | 469 kts | 199° |
| 2026-05-04 14:46 | -46.47766 | -62.91252 | 0 ft | 468 kts | 199° |
| 2026-05-04 14:46 | -46.50805 | -62.92765 | 0 ft | 468 kts | 199° |
| 2026-05-04 14:46 | -46.53895 | -62.94294 | 0 ft | 469 kts | 199° |
| 2026-05-04 14:47 | -46.56988 | -62.95838 | 0 ft | 469 kts | 199° |
| 2026-05-04 14:47 | -46.60084 | -62.97374 | 0 ft | 470 kts | 199° |
| 2026-05-04 14:47 | -46.63171 | -62.98917 | 0 ft | 470 kts | 199° |
| 2026-05-04 14:47 | -46.66269 | -63.00458 | 0 ft | 469 kts | 199° |
| 2026-05-04 14:48 | -46.69354 | -63.02004 | 0 ft | 469 kts | 199° |
| 2026-05-04 14:48 | -46.72438 | -63.03543 | 0 ft | 468 kts | 199° |
| 2026-05-04 14:48 | -46.75524 | -63.05092 | 0 ft | 469 kts | 199° |
| 2026-05-04 14:48 | -46.78569 | -63.06616 | 0 ft | 469 kts | 199° |
| 2026-05-04 14:49 | -46.81661 | -63.08172 | 0 ft | 470 kts | 199° |
| 2026-05-04 14:49 | -46.84752 | -63.09723 | 0 ft | 470 kts | 200° |
| 2026-05-04 14:49 | -46.87847 | -63.11283 | 0 ft | 469 kts | 199° |
| 2026-05-04 14:49 | -46.90935 | -63.12837 | 0 ft | 469 kts | 200° |
| 2026-05-04 14:50 | -46.94023 | -63.14397 | 0 ft | 468 kts | 199° |
| 2026-05-04 14:50 | -46.97071 | -63.15935 | 0 ft | 469 kts | 200° |
| 2026-05-04 14:50 | -47.00162 | -63.17499 | 0 ft | 469 kts | 199° |
| 2026-05-04 14:50 | -47.03253 | -63.19064 | 0 ft | 470 kts | 200° |
| 2026-05-04 14:51 | -47.06352 | -63.20635 | 0 ft | 470 kts | 199° |
| 2026-05-04 14:51 | -47.09446 | -63.22205 | 0 ft | 469 kts | 200° |
| 2026-05-04 14:51 | -47.12498 | -63.23757 | 0 ft | 469 kts | 199° |
| 2026-05-04 14:51 | -47.15585 | -63.25328 | 0 ft | 468 kts | 200° |
| 2026-05-04 14:52 | -47.18669 | -63.26898 | 0 ft | 469 kts | 199° |
| 2026-05-04 14:52 | -47.21755 | -63.28474 | 0 ft | 469 kts | 200° |
| 2026-05-04 14:52 | -47.24837 | -63.30047 | 0 ft | 470 kts | 199° |
| 2026-05-04 14:52 | -47.27924 | -63.31627 | 0 ft | 470 kts | 200° |
| 2026-05-04 14:53 | -47.31010 | -63.33205 | 0 ft | 469 kts | 199° |
| 2026-05-04 14:53 | -47.34058 | -63.34769 | 0 ft | 469 kts | 200° |
| 2026-05-04 14:53 | -47.37140 | -63.36349 | 0 ft | 468 kts | 199° |
| 2026-05-04 14:53 | -47.40225 | -63.37937 | 0 ft | 469 kts | 200° |
| 2026-05-04 14:54 | -47.43282 | -63.39507 | 0 ft | 469 kts | 199° |
| 2026-05-04 14:54 | -47.46368 | -63.41101 | 0 ft | 469 kts | 200° |
| 2026-05-04 14:54 | -47.49458 | -63.42691 | 0 ft | 470 kts | 200° |
| 2026-05-04 14:54 | -47.52541 | -63.44287 | 0 ft | 469 kts | 200° |
| 2026-05-04 14:55 | -47.55634 | -63.45882 | 0 ft | 469 kts | 200° |
| 2026-05-04 14:55 | -47.58714 | -63.47481 | 0 ft | 468 kts | 200° |
| 2026-05-04 14:55 | -47.61795 | -63.49074 | 0 ft | 468 kts | 200° |
| 2026-05-04 14:55 | -47.64841 | -63.50660 | 0 ft | 469 kts | 200° |
| 2026-05-04 14:56 | -47.67931 | -63.52261 | 0 ft | 469 kts | 200° |
| 2026-05-04 14:56 | -47.71010 | -63.53868 | 0 ft | 470 kts | 200° |
| 2026-05-04 14:56 | -47.74105 | -63.55475 | 0 ft | 469 kts | 200° |
| 2026-05-04 14:56 | -47.77187 | -63.57089 | 0 ft | 469 kts | 200° |
| 2026-05-04 14:57 | -47.80233 | -63.58674 | 0 ft | 468 kts | 200° |
| 2026-05-04 14:57 | -47.83321 | -63.60295 | 0 ft | 468 kts | 200° |
| 2026-05-04 14:57 | -47.86402 | -63.61902 | 0 ft | 469 kts | 200° |
| 2026-05-04 14:57 | -47.89449 | -63.63506 | 0 ft | 469 kts | 200° |
| 2026-05-04 14:58 | -47.92536 | -63.65120 | 0 ft | 470 kts | 200° |
| 2026-05-04 14:58 | -47.95620 | -63.66747 | 0 ft | 469 kts | 200° |
| 2026-05-04 14:58 | -47.98697 | -63.68360 | 0 ft | 469 kts | 200° |
| 2026-05-04 14:58 | -48.01774 | -63.69988 | 0 ft | 468 kts | 200° |
| 2026-05-04 14:59 | -48.04852 | -63.71605 | 0 ft | 468 kts | 200° |
| 2026-05-04 14:59 | -48.07925 | -63.73236 | 0 ft | 469 kts | 200° |
| 2026-05-04 14:59 | -48.14086 | -63.76497 | 0 ft | 470 kts | 200° |
| 2026-05-04 15:00 | -48.17171 | -63.78126 | 0 ft | 469 kts | 200° |
| 2026-05-04 15:00 | -48.20206 | -63.79744 | 0 ft | 469 kts | 200° |
| 2026-05-04 15:00 | -48.23288 | -63.81376 | 0 ft | 468 kts | 200° |
| 2026-05-04 15:01 | -48.29435 | -63.84650 | 0 ft | 469 kts | 200° |
| 2026-05-04 15:01 | -48.32516 | -63.86302 | 0 ft | 469 kts | 200° |
| 2026-05-04 15:01 | -48.35599 | -63.87942 | 0 ft | 470 kts | 200° |
| 2026-05-04 15:01 | -48.38649 | -63.89581 | 0 ft | 469 kts | 200° |
| 2026-05-04 15:02 | -48.41730 | -63.91225 | 0 ft | 469 kts | 200° |
| 2026-05-04 15:02 | -48.44805 | -63.92881 | 0 ft | 468 kts | 200° |
| 2026-05-04 15:02 | -48.47880 | -63.94526 | 0 ft | 468 kts | 200° |
| 2026-05-04 15:02 | -48.50959 | -63.96189 | 0 ft | 469 kts | 200° |
| 2026-05-04 15:03 | -48.53999 | -63.97820 | 0 ft | 469 kts | 200° |
| 2026-05-04 15:03 | -48.57077 | -63.99486 | 0 ft | 470 kts | 200° |
| 2026-05-04 15:03 | -48.60155 | -64.01141 | 0 ft | 469 kts | 200° |
| 2026-05-04 15:03 | -48.63229 | -64.02809 | 0 ft | 469 kts | 200° |
| 2026-05-04 15:04 | -48.66302 | -64.04467 | 0 ft | 469 kts | 200° |
| 2026-05-04 15:04 | -48.69369 | -64.06135 | 0 ft | 468 kts | 200° |
| 2026-05-04 15:04 | -48.72449 | -64.07801 | 0 ft | 469 kts | 200° |
| 2026-05-04 15:04 | -48.75518 | -64.09474 | 0 ft | 469 kts | 200° |
| 2026-05-04 15:05 | -48.78593 | -64.11143 | 0 ft | 469 kts | 200° |
| 2026-05-04 15:05 | -48.81633 | -64.12803 | 0 ft | 470 kts | 200° |
| 2026-05-04 15:05 | -48.84715 | -64.14480 | 0 ft | 469 kts | 200° |
| 2026-05-04 15:05 | -48.87787 | -64.16163 | 0 ft | 469 kts | 200° |
| 2026-05-04 15:06 | -48.90855 | -64.17837 | 0 ft | 468 kts | 200° |
| 2026-05-04 15:06 | -48.93917 | -64.19518 | 0 ft | 468 kts | 200° |
| 2026-05-04 15:06 | -48.96990 | -64.21200 | 0 ft | 469 kts | 200° |
| 2026-05-04 15:07 | -49.03145 | -64.24582 | 0 ft | 470 kts | 200° |
| 2026-05-04 15:07 | -49.06220 | -64.26278 | 0 ft | 469 kts | 200° |
| 2026-05-04 15:07 | -49.09286 | -64.27966 | 0 ft | 469 kts | 200° |
| 2026-05-04 15:07 | -49.12355 | -64.29662 | 0 ft | 468 kts | 200° |
| 2026-05-04 15:08 | -49.15392 | -64.31340 | 0 ft | 468 kts | 200° |
| 2026-05-04 15:08 | -49.18465 | -64.33041 | 0 ft | 469 kts | 200° |
| 2026-05-04 15:08 | -49.21542 | -64.34746 | 0 ft | 469 kts | 200° |
| 2026-05-04 15:08 | -49.24579 | -64.36432 | 0 ft | 470 kts | 200° |
| 2026-05-04 15:09 | -49.27650 | -64.38138 | 0 ft | 469 kts | 200° |
| 2026-05-04 15:09 | -49.30721 | -64.39846 | 0 ft | 469 kts | 200° |
| 2026-05-04 15:09 | -49.33788 | -64.41556 | 0 ft | 468 kts | 200° |
| 2026-05-04 15:10 | -49.39925 | -64.44983 | 0 ft | 469 kts | 200° |
| 2026-05-04 15:10 | -49.42997 | -64.46699 | 0 ft | 469 kts | 200° |
| 2026-05-04 15:10 | -49.49101 | -64.50120 | 0 ft | 469 kts | 200° |
| 2026-05-04 15:11 | -49.52177 | -64.51850 | 0 ft | 469 kts | 200° |
| 2026-05-04 15:11 | -49.55247 | -64.53574 | 0 ft | 468 kts | 200° |
| 2026-05-04 15:11 | -49.58303 | -64.55298 | 0 ft | 468 kts | 201° |
| 2026-05-04 15:11 | -49.61373 | -64.57025 | 0 ft | 469 kts | 200° |
| 2026-05-04 15:12 | -49.64434 | -64.58758 | 0 ft | 469 kts | 201° |
| 2026-05-04 15:12 | -49.67468 | -64.60469 | 0 ft | 470 kts | 200° |
| 2026-05-04 15:12 | -49.70542 | -64.62214 | 0 ft | 469 kts | 201° |
| 2026-05-04 15:12 | -49.73607 | -64.63947 | 0 ft | 469 kts | 200° |
| 2026-05-04 15:13 | -49.76666 | -64.65689 | 0 ft | 468 kts | 201° |
| 2026-05-04 15:13 | -49.79726 | -64.67423 | 0 ft | 468 kts | 200° |
| 2026-05-04 15:13 | -49.82788 | -64.69172 | 0 ft | 469 kts | 201° |
| 2026-05-04 15:13 | -49.85856 | -64.70914 | 0 ft | 469 kts | 200° |
| 2026-05-04 15:14 | -49.88941 | -64.72681 | 0 ft | 470 kts | 201° |
| 2026-05-04 15:14 | -49.91974 | -64.74408 | 0 ft | 469 kts | 201° |
| 2026-05-04 15:14 | -49.95042 | -64.76171 | 0 ft | 469 kts | 201° |
| 2026-05-04 15:14 | -49.98113 | -64.77924 | 0 ft | 468 kts | 201° |
| 2026-05-04 15:15 | -50.01168 | -64.79684 | 0 ft | 468 kts | 201° |
| 2026-05-04 15:15 | -50.04224 | -64.81433 | 0 ft | 469 kts | 201° |
| 2026-05-04 15:15 | -50.07250 | -64.83181 | 0 ft | 469 kts | 201° |
| 2026-05-04 15:16 | -50.13381 | -64.86717 | 0 ft | 469 kts | 201° |
| 2026-05-04 15:16 | -50.16450 | -64.88483 | 0 ft | 469 kts | 201° |
| 2026-05-04 15:16 | -50.22569 | -64.92025 | 0 ft | 468 kts | 201° |
| 2026-05-04 15:17 | -50.25630 | -64.93809 | 0 ft | 469 kts | 201° |
| 2026-05-04 15:17 | -50.31731 | -64.97356 | 0 ft | 470 kts | 201° |
| 2026-05-04 15:17 | -50.34801 | -64.99136 | 0 ft | 469 kts | 201° |
| 2026-05-04 15:18 | -50.37862 | -65.00930 | 0 ft | 469 kts | 201° |
| 2026-05-04 15:18 | -50.40888 | -65.02690 | 0 ft | 468 kts | 201° |
| 2026-05-04 15:18 | -50.43943 | -65.04485 | 0 ft | 468 kts | 201° |
| 2026-05-04 15:19 | -50.50060 | -65.08070 | 0 ft | 469 kts | 201° |
| 2026-05-04 15:19 | -50.53128 | -65.09865 | 0 ft | 469 kts | 201° |
| 2026-05-04 15:19 | -50.59211 | -65.13446 | 0 ft | 469 kts | 201° |
| 2026-05-04 15:20 | -50.62301 | -65.15276 | 0 ft | 468 kts | 201° |
| 2026-05-04 15:20 | -50.65320 | -65.17052 | 0 ft | 468 kts | 201° |
| 2026-05-04 15:20 | -50.68373 | -65.18865 | 0 ft | 469 kts | 201° |
| 2026-05-04 15:20 | -50.71432 | -65.20670 | 0 ft | 469 kts | 201° |
| 2026-05-04 15:21 | -50.74491 | -65.22491 | 0 ft | 469 kts | 201° |
| 2026-05-04 15:21 | -50.77557 | -65.24306 | 0 ft | 469 kts | 201° |
| 2026-05-04 15:21 | -50.83639 | -65.27927 | 0 ft | 472 kts | 201° |
| 2026-05-04 15:22 | -50.86732 | -65.29776 | 0 ft | 476 kts | 201° |
| 2026-05-04 15:22 | -50.89839 | -65.31627 | 0 ft | 477 kts | 201° |
| 2026-05-04 15:22 | -50.96047 | -65.35344 | 0 ft | 474 kts | 201° |
| 2026-05-04 15:23 | -50.99128 | -65.37196 | 0 ft | 473 kts | 201° |
| 2026-05-04 15:23 | -51.02217 | -65.39049 | 0 ft | 474 kts | 201° |
| 2026-05-04 15:23 | -51.05273 | -65.40890 | 0 ft | 475 kts | 201° |
| 2026-05-04 15:23 | -51.08363 | -65.42749 | 0 ft | 475 kts | 201° |
| 2026-05-04 15:24 | -51.14559 | -65.46490 | 0 ft | 474 kts | 201° |
| 2026-05-04 15:24 | -51.20684 | -65.50199 | 0 ft | 474 kts | 201° |
| 2026-05-04 15:25 | -51.23777 | -65.52077 | 0 ft | 474 kts | 201° |
| 2026-05-04 15:25 | -51.26868 | -65.53955 | 0 ft | 475 kts | 201° |
| 2026-05-04 15:25 | -51.29962 | -65.55838 | 0 ft | 475 kts | 201° |
| 2026-05-04 15:26 | -51.36155 | -65.59614 | 0 ft | 474 kts | 201° |
| 2026-05-04 15:26 | -51.39189 | -65.61470 | 0 ft | 474 kts | 201° |
| 2026-05-04 15:26 | -51.45363 | -65.65251 | 0 ft | 474 kts | 201° |
| 2026-05-04 15:27 | -51.48461 | -65.67151 | 0 ft | 475 kts | 201° |
| 2026-05-04 15:27 | -51.54632 | -65.70947 | 0 ft | 475 kts | 201° |
| 2026-05-04 15:28 | -51.60751 | -65.74721 | 0 ft | 461 kts | 201° |
| 2026-05-04 15:28 | -51.63689 | -65.76541 | 0 ft | 448 kts | 201° |
| 2026-05-04 15:28 | -51.69500 | -65.80143 | 0 ft | 450 kts | 201° |
| 2026-05-04 15:29 | -51.72437 | -65.81963 | 0 ft | 453 kts | 201° |
| 2026-05-04 15:30 | -51.84177 | -65.89276 | 0 ft | 451 kts | 201° |
| 2026-05-04 15:30 | -51.92975 | -65.94788 | 0 ft | 453 kts | 202° |
| 2026-05-04 15:31 | -51.98809 | -65.98454 | 0 ft | 452 kts | 202° |
| 2026-05-04 15:31 | -52.01746 | -66.00300 | 0 ft | 451 kts | 201° |
| 2026-05-04 15:32 | -52.09563 | -66.05234 | 0 ft | 453 kts | 202° |
| 2026-05-04 15:32 | -52.16389 | -66.09562 | 0 ft | 452 kts | 202° |
| 2026-05-04 15:33 | -52.21270 | -66.12659 | 0 ft | 452 kts | 202° |
| 2026-05-04 15:34 | -52.30070 | -66.18271 | 0 ft | 453 kts | 202° |
| 2026-05-04 15:34 | -52.33005 | -66.20144 | 0 ft | 452 kts | 202° |
| 2026-05-04 15:34 | -52.38836 | -66.23880 | 0 ft | 452 kts | 202° |
| 2026-05-04 15:35 | -52.44693 | -66.27642 | 0 ft | 452 kts | 202° |
| 2026-05-04 15:35 | -52.47629 | -66.29535 | 0 ft | 453 kts | 202° |
| 2026-05-04 15:35 | -52.50558 | -66.31421 | 0 ft | 453 kts | 202° |
| 2026-05-04 15:36 | -52.56425 | -66.35211 | 0 ft | 452 kts | 202° |
| 2026-05-04 15:36 | -52.59316 | -66.37086 | 0 ft | 452 kts | 202° |
| 2026-05-04 15:36 | -52.62244 | -66.38982 | 0 ft | 452 kts | 202° |
| 2026-05-04 15:37 | -52.65174 | -66.40887 | 0 ft | 452 kts | 202° |
| 2026-05-04 15:37 | -52.68107 | -66.42792 | 0 ft | 453 kts | 202° |
| 2026-05-04 15:37 | -52.71048 | -66.44709 | 0 ft | 453 kts | 202° |
| 2026-05-04 15:37 | -52.73976 | -66.46616 | 0 ft | 452 kts | 202° |
| 2026-05-04 15:38 | -52.76900 | -66.48528 | 0 ft | 452 kts | 202° |
| 2026-05-04 15:38 | -52.79825 | -66.50439 | 0 ft | 452 kts | 202° |
| 2026-05-04 15:38 | -52.82704 | -66.52328 | 0 ft | 452 kts | 202° |
| 2026-05-04 15:38 | -52.85633 | -66.54246 | 0 ft | 452 kts | 202° |
| 2026-05-04 15:39 | -52.88576 | -66.56182 | 0 ft | 453 kts | 202° |
| 2026-05-04 15:39 | -52.91512 | -66.58110 | 0 ft | 459 kts | 202° |
| 2026-05-04 15:39 | -52.97425 | -66.62009 | 0 ft | 456 kts | 202° |
| 2026-05-04 15:40 | -53.00366 | -66.63956 | 0 ft | 452 kts | 202° |
| 2026-05-04 15:40 | -53.03239 | -66.65853 | 0 ft | 429 kts | 202° |
| 2026-05-04 15:40 | -53.05971 | -66.67669 | 0 ft | 415 kts | 202° |
| 2026-05-04 15:40 | -53.08696 | -66.69469 | 0 ft | 434 kts | 202° |
| 2026-05-04 15:41 | -53.11593 | -66.71403 | 0 ft | 463 kts | 202° |
| 2026-05-04 15:41 | -53.14584 | -66.73385 | 0 ft | 462 kts | 202° |
| 2026-05-04 15:41 | -53.17573 | -66.75386 | 0 ft | 459 kts | 202° |
| 2026-05-04 15:41 | -53.20515 | -66.77340 | 0 ft | 452 kts | 202° |
| 2026-05-04 15:42 | -53.23416 | -66.79289 | 0 ft | 446 kts | 202° |
| 2026-05-04 15:42 | -53.26280 | -66.81197 | 0 ft | 440 kts | 202° |
| 2026-05-04 15:42 | -53.29101 | -66.83097 | 0 ft | 434 kts | 202° |
| 2026-05-04 15:42 | -53.31863 | -66.84943 | 0 ft | 428 kts | 202° |
| 2026-05-04 15:43 | -53.34608 | -66.86797 | 0 ft | 423 kts | 202° |
| 2026-05-04 15:43 | -53.37325 | -66.88618 | 0 ft | 418 kts | 202° |
| 2026-05-04 15:43 | -53.40003 | -66.90432 | 0 ft | 410 kts | 202° |
| 2026-05-04 15:43 | -53.42613 | -66.92186 | 0 ft | 397 kts | 202° |
| 2026-05-04 15:44 | -53.45113 | -66.93881 | 0 ft | 387 kts | 202° |
| 2026-05-04 15:44 | -53.47593 | -66.95557 | 0 ft | 382 kts | 202° |
| 2026-05-04 15:44 | -53.50048 | -66.97223 | 0 ft | 379 kts | 202° |
| 2026-05-04 15:44 | -53.52492 | -66.98879 | 0 ft | 376 kts | 202° |
| 2026-05-04 15:45 | -53.54911 | -67.00523 | 0 ft | 372 kts | 203° |
| 2026-05-04 15:45 | -53.57299 | -67.02148 | 0 ft | 368 kts | 202° |
| 2026-05-04 15:45 | -53.59664 | -67.03756 | 0 ft | 365 kts | 203° |
| 2026-05-04 15:45 | -53.62014 | -67.05362 | 0 ft | 362 kts | 202° |
| 2026-05-04 15:46 | -53.64314 | -67.06927 | 0 ft | 360 kts | 203° |
| 2026-05-04 15:46 | -53.66635 | -67.08519 | 0 ft | 356 kts | 202° |
| 2026-05-04 15:46 | -53.68919 | -67.10076 | 0 ft | 353 kts | 203° |
| 2026-05-04 15:46 | -53.71188 | -67.11637 | 0 ft | 350 kts | 202° |
| 2026-05-04 15:47 | -53.73440 | -67.13174 | 0 ft | 348 kts | 203° |
| 2026-05-04 15:47 | -53.75676 | -67.14718 | 0 ft | 346 kts | 203° |
| 2026-05-04 15:47 | -53.77898 | -67.16237 | 0 ft | 343 kts | 202° |
| 2026-05-04 15:47 | -53.80100 | -67.17759 | 0 ft | 340 kts | 203° |
| 2026-05-04 15:48 | -53.82256 | -67.19240 | 0 ft | 338 kts | 202° |
| 2026-05-04 15:48 | -53.84435 | -67.20746 | 0 ft | 337 kts | 203° |
| 2026-05-04 15:48 | -53.88754 | -67.23728 | 0 ft | 332 kts | 203° |
| 2026-05-04 15:49 | -53.90888 | -67.25208 | 0 ft | 330 kts | 203° |
| 2026-05-04 15:49 | -53.92991 | -67.26659 | 0 ft | 328 kts | 203° |
| 2026-05-04 15:49 | -53.95099 | -67.28129 | 0 ft | 325 kts | 203° |
| 2026-05-04 15:49 | -53.97194 | -67.29576 | 0 ft | 323 kts | 203° |
| 2026-05-04 15:50 | -53.99245 | -67.31009 | 0 ft | 320 kts | 203° |
| 2026-05-04 15:50 | -54.01307 | -67.32437 | 0 ft | 318 kts | 203° |
| 2026-05-04 15:50 | -54.03351 | -67.33866 | 0 ft | 316 kts | 203° |
| 2026-05-04 15:50 | -54.05385 | -67.35281 | 0 ft | 314 kts | 203° |
| 2026-05-04 15:51 | -54.07398 | -67.36687 | 0 ft | 311 kts | 203° |
| 2026-05-04 15:51 | -54.09394 | -67.38082 | 0 ft | 309 kts | 203° |
| 2026-05-04 15:51 | -54.11371 | -67.39466 | 0 ft | 308 kts | 203° |
| 2026-05-04 15:51 | -54.13358 | -67.40857 | 0 ft | 309 kts | 203° |
| 2026-05-04 15:52 | -54.15339 | -67.42245 | 0 ft | 306 kts | 203° |
| 2026-05-04 15:52 | -54.17287 | -67.43615 | 0 ft | 306 kts | 203° |
| 2026-05-04 15:52 | -54.19259 | -67.45007 | 0 ft | 305 kts | 203° |
| 2026-05-04 15:52 | -54.21224 | -67.46353 | 0 ft | 301 kts | 202° |
| 2026-05-04 15:53 | -54.23172 | -67.47749 | 0 ft | 305 kts | 204° |
| 2026-05-04 15:53 | -54.25127 | -67.49140 | 0 ft | 303 kts | 203° |
| 2026-05-04 15:53 | -54.27060 | -67.50490 | 0 ft | 304 kts | 203° |
| 2026-05-04 15:53 | -54.29013 | -67.51874 | 0 ft | 304 kts | 203° |
| 2026-05-04 15:54 | -54.30968 | -67.53250 | 0 ft | 303 kts | 203° |
| 2026-05-04 15:54 | -54.32922 | -67.54635 | 0 ft | 304 kts | 203° |
| 2026-05-04 15:54 | -54.34875 | -67.56016 | 0 ft | 303 kts | 203° |
| 2026-05-04 15:54 | -54.36803 | -67.57388 | 0 ft | 303 kts | 203° |
| 2026-05-04 15:55 | -54.38755 | -67.58766 | 0 ft | 303 kts | 203° |
| 2026-05-04 15:55 | -54.40680 | -67.60138 | 0 ft | 302 kts | 203° |
| 2026-05-04 15:55 | -54.42623 | -67.61519 | 0 ft | 302 kts | 203° |
| 2026-05-04 15:55 | -54.44575 | -67.62907 | 0 ft | 304 kts | 203° |
| 2026-05-04 15:56 | -54.46523 | -67.64288 | 0 ft | 300 kts | 201° |
| 2026-05-04 15:56 | -54.48520 | -67.65253 | 0 ft | 302 kts | 191° |
| 2026-05-04 15:56 | -54.50612 | -67.65719 | 0 ft | 301 kts | 186° |
| 2026-05-04 15:56 | -54.52701 | -67.66022 | 0 ft | 301 kts | 185° |
| 2026-05-04 15:57 | -54.54797 | -67.66235 | 0 ft | 301 kts | 182° |
| 2026-05-04 15:57 | -54.56883 | -67.66060 | 0 ft | 301 kts | 175° |
| 2026-05-04 15:57 | -54.58947 | -67.65770 | 0 ft | 300 kts | 178° |
| 2026-05-04 15:57 | -54.61029 | -67.65589 | 0 ft | 299 kts | 177° |
| 2026-05-04 15:58 | -54.63047 | -67.65331 | 0 ft | 280 kts | 177° |
| 2026-05-04 15:58 | -54.64937 | -67.65135 | 0 ft | 263 kts | 178° |
| 2026-05-04 15:58 | -54.66716 | -67.64943 | 0 ft | 248 kts | 177° |
| 2026-05-04 15:58 | -54.68388 | -67.64739 | 0 ft | 233 kts | 177° |
| 2026-05-04 15:59 | -54.69940 | -67.64562 | 0 ft | 221 kts | 177° |
| 2026-05-04 15:59 | -54.71439 | -67.64394 | 0 ft | 211 kts | 177° |
| 2026-05-04 15:59 | -54.72871 | -67.64222 | 0 ft | 202 kts | 178° |
| 2026-05-04 15:59 | -54.74239 | -67.64080 | 0 ft | 192 kts | 178° |
| 2026-05-04 16:00 | -54.75573 | -67.63952 | 0 ft | 192 kts | 178° |
| 2026-05-04 16:00 | -54.76907 | -67.63818 | 0 ft | 192 kts | 178° |
| 2026-05-04 16:00 | -54.78235 | -67.63663 | 0 ft | 191 kts | 179° |
| 2026-05-04 16:00 | -54.79545 | -67.63844 | 0 ft | 188 kts | 195° |
| 2026-05-04 16:01 | -54.80743 | -67.64643 | 0 ft | 187 kts | 211° |
| 2026-05-04 16:01 | -54.81776 | -67.65998 | 0 ft | 184 kts | 227° |
| 2026-05-04 16:01 | -54.82539 | -67.67777 | 0 ft | 185 kts | 243° |
| 2026-05-04 16:01 | -54.82982 | -67.69855 | 0 ft | 183 kts | 258° |
| 2026-05-04 16:02 | -54.83092 | -67.72047 | 0 ft | 182 kts | 271° |
| 2026-05-04 16:02 | -54.83070 | -67.74247 | 0 ft | 182 kts | 271° |
| 2026-05-04 16:02 | -54.82766 | -67.78578 | 0 ft | 183 kts | 287° |
| 2026-05-04 16:03 | -54.82328 | -67.80643 | 0 ft | 182 kts | 291° |
| 2026-05-04 16:03 | -54.81869 | -67.82661 | 0 ft | 182 kts | 290° |
| 2026-05-04 16:03 | -54.81598 | -67.84800 | 0 ft | 181 kts | 273° |
| 2026-05-04 16:03 | -54.81695 | -67.86992 | 0 ft | 183 kts | 261° |
| 2026-05-04 16:04 | -54.81902 | -67.89173 | 0 ft | 183 kts | 261° |
| 2026-05-04 16:04 | -54.82336 | -67.93483 | 0 ft | 178 kts | 260° |
| 2026-05-04 16:04 | -54.82543 | -67.95555 | 0 ft | 170 kts | 261° |
| 2026-05-04 16:05 | -54.82738 | -67.97539 | 0 ft | 162 kts | 261° |
| 2026-05-04 16:05 | -54.82928 | -67.99430 | 0 ft | 156 kts | 261° |
| 2026-05-04 16:05 | -54.83279 | -68.03090 | 0 ft | 154 kts | 262° |
| 2026-05-04 16:06 | -54.83425 | -68.04934 | 0 ft | 154 kts | 264° |
| 2026-05-04 16:06 | -54.83579 | -68.09758 | 0 ft | 151 kts | 268° |
| 2026-05-04 16:07 | -54.83647 | -68.12169 | 0 ft | 151 kts | 266° |
| 2026-05-04 16:07 | -54.83870 | -68.17659 | 0 ft | 155 kts | 267° |
| 2026-05-04 16:08 | -54.83936 | -68.19466 | 0 ft | 150 kts | 267° |
| 2026-05-04 16:08 | -54.84171 | -68.24950 | 0 ft | 147 kts | 268° |
| 2026-05-04 16:09 | -54.84282 | -68.28360 | 0 ft | 130 kts | 263° |
| 2026-05-04 16:09 | -54.84372 | -68.30674 | 0 ft | 53 kts | 266° |
| 2026-05-04 16:10 | -54.84352 | -68.30943 | 0 ft | 6 kts | 329° |
| 2026-05-04 16:11 | -54.84223 | -68.30971 | 0 ft | 0 kts | 354° |
| 2026-05-04 16:11 | -54.84220 | -68.30972 | 0 ft | 7 kts | 353° |
| 2026-05-04 16:12 | -54.84095 | -68.31099 | 0 ft | 4 kts | 268° |
| 2026-05-04 16:12 | -54.84026 | -68.31178 | 0 ft | 0 kts | 349° |
| 2026-05-04 16:22 | -54.84034 | -68.31176 | 0 ft | 2 kts | 349° |
| 2026-05-04 16:23 | -54.84084 | -68.31159 | 0 ft | 2 kts | 349° |
| 2026-05-04 16:24 | -54.84162 | -68.31335 | 0 ft | 12 kts | 176° |
| 2026-05-04 16:25 | -54.84335 | -68.31316 | 0 ft | 10 kts | 175° |
| 2026-05-04 16:26 | -54.84228 | -68.27048 | 0 ft | 194 kts | 90° |
| 2026-05-04 16:26 | -54.85588 | -68.19966 | 0 ft | 246 kts | 120° |
| 2026-05-04 16:27 | -54.87310 | -68.15639 | 0 ft | 260 kts | 127° |
| 2026-05-04 16:28 | -54.89660 | -68.07919 | 0 ft | 261 kts | 101° |
| 2026-05-04 16:28 | -54.88856 | -67.98049 | 0 ft | 301 kts | 62° |
| 2026-05-04 16:29 | -54.81084 | -67.97105 | 0 ft | 328 kts | 336° |
| 2026-05-04 16:30 | -54.74652 | -68.01817 | 0 ft | 339 kts | 336° |
| 2026-05-04 16:31 | -54.70104 | -68.03969 | 0 ft | 348 kts | 355° |
| 2026-05-04 16:31 | -54.62707 | -68.03679 | 0 ft | 360 kts | 4° |
| 2026-05-04 16:32 | -54.55188 | -68.01611 | 0 ft | 372 kts | 10° |
| 2026-05-04 16:33 | -54.50048 | -67.99791 | 0 ft | 381 kts | 11° |
| 2026-05-04 16:33 | -54.44825 | -67.97956 | 0 ft | 388 kts | 11° |
| 2026-05-04 16:34 | -54.39485 | -67.96071 | 0 ft | 394 kts | 11° |
| 2026-05-04 16:34 | -54.36791 | -67.95119 | 0 ft | 396 kts | 11° |
| 2026-05-04 16:35 | -54.28621 | -67.92252 | 0 ft | 404 kts | 11° |
| 2026-05-04 16:35 | -54.20258 | -67.89325 | 0 ft | 413 kts | 11° |
| 2026-05-04 16:36 | -54.17426 | -67.88339 | 0 ft | 416 kts | 11° |
| 2026-05-04 16:36 | -54.11712 | -67.86351 | 0 ft | 421 kts | 11° |
| 2026-05-04 16:37 | -54.05926 | -67.84342 | 0 ft | 427 kts | 11° |
| 2026-05-04 16:37 | -54.03004 | -67.83331 | 0 ft | 430 kts | 11° |
| 2026-05-04 16:37 | -53.97129 | -67.81302 | 0 ft | 435 kts | 11° |
| 2026-05-04 16:38 | -53.91213 | -67.79263 | 0 ft | 432 kts | 11° |
| 2026-05-04 16:39 | -53.82424 | -67.76247 | 0 ft | 429 kts | 11° |
| 2026-05-04 16:39 | -53.76626 | -67.73833 | 0 ft | 428 kts | 15° |
| 2026-05-04 16:40 | -53.71092 | -67.70305 | 0 ft | 428 kts | 19° |
| 2026-05-04 16:40 | -53.65529 | -67.66650 | 0 ft | 429 kts | 20° |
| 2026-05-04 16:41 | -53.59967 | -67.63017 | 0 ft | 429 kts | 21° |
| 2026-05-04 16:41 | -53.51533 | -67.57509 | 0 ft | 440 kts | 20° |
| 2026-05-04 16:42 | -53.42783 | -67.51815 | 0 ft | 461 kts | 20° |
| 2026-05-04 16:43 | -53.36719 | -67.47883 | 0 ft | 469 kts | 20° |
| 2026-05-04 16:43 | -53.30669 | -67.43973 | 0 ft | 469 kts | 20° |
| 2026-05-04 16:43 | -53.27616 | -67.42012 | 0 ft | 469 kts | 20° |
| 2026-05-04 16:44 | -53.15419 | -67.34178 | 0 ft | 469 kts | 20° |
| 2026-05-04 16:45 | -53.09345 | -67.30290 | 0 ft | 469 kts | 20° |
| 2026-05-04 16:46 | -53.00225 | -67.24487 | 0 ft | 469 kts | 20° |
| 2026-05-04 16:46 | -52.94156 | -67.20636 | 0 ft | 469 kts | 20° |
| 2026-05-04 16:47 | -52.88045 | -67.16770 | 0 ft | 469 kts | 20° |
| 2026-05-04 16:47 | -52.81961 | -67.12933 | 0 ft | 469 kts | 20° |
| 2026-05-04 16:48 | -52.72808 | -67.07175 | 0 ft | 469 kts | 20° |
| 2026-05-04 16:48 | -52.69751 | -67.05267 | 0 ft | 469 kts | 20° |
| 2026-05-04 16:49 | -52.63679 | -67.01472 | 0 ft | 469 kts | 20° |
| 2026-05-04 16:49 | -52.57557 | -66.97658 | 0 ft | 469 kts | 20° |
| 2026-05-04 16:50 | -52.51481 | -66.93880 | 0 ft | 472 kts | 19° |
| 2026-05-04 16:50 | -52.45273 | -66.90040 | 0 ft | 482 kts | 19° |
| 2026-05-04 16:51 | -52.38922 | -66.86098 | 0 ft | 493 kts | 20° |
| 2026-05-04 16:51 | -52.35722 | -66.84048 | 0 ft | 493 kts | 19° |
| 2026-05-04 16:51 | -52.29297 | -66.80038 | 0 ft | 493 kts | 19° |
| 2026-05-04 16:52 | -52.22921 | -66.76060 | 0 ft | 493 kts | 19° |
| 2026-05-04 16:52 | -52.19701 | -66.74064 | 0 ft | 493 kts | 19° |
| 2026-05-04 16:53 | -52.13286 | -66.70078 | 0 ft | 493 kts | 19° |
| 2026-05-04 16:53 | -52.03682 | -66.64132 | 0 ft | 493 kts | 19° |
| 2026-05-04 16:54 | -52.00461 | -66.62146 | 0 ft | 493 kts | 19° |
| 2026-05-04 16:55 | -51.87643 | -66.54267 | 0 ft | 493 kts | 19° |
| 2026-05-04 16:55 | -51.81209 | -66.50328 | 0 ft | 493 kts | 19° |
| 2026-05-04 16:56 | -51.74768 | -66.46404 | 0 ft | 493 kts | 19° |
| 2026-05-04 16:56 | -51.65152 | -66.40558 | 0 ft | 493 kts | 19° |
| 2026-05-04 16:57 | -51.61937 | -66.38615 | 0 ft | 493 kts | 19° |
| 2026-05-04 16:57 | -51.55502 | -66.34727 | 0 ft | 493 kts | 19° |
| 2026-05-04 16:58 | -51.45899 | -66.28942 | 0 ft | 493 kts | 19° |
| 2026-05-04 16:58 | -51.42682 | -66.27015 | 0 ft | 493 kts | 19° |
| 2026-05-04 16:59 | -51.36243 | -66.23154 | 0 ft | 493 kts | 19° |
| 2026-05-04 17:00 | -51.23387 | -66.15493 | 0 ft | 493 kts | 19° |
| 2026-05-04 17:00 | -51.13764 | -66.09782 | 0 ft | 493 kts | 19° |
| 2026-05-04 17:01 | -51.07323 | -66.05975 | 0 ft | 493 kts | 19° |
| 2026-05-04 17:01 | -51.00875 | -66.02176 | 0 ft | 493 kts | 19° |
| 2026-05-04 17:02 | -50.94434 | -65.98393 | 0 ft | 493 kts | 19° |
| 2026-05-04 17:02 | -50.88019 | -65.94636 | 0 ft | 493 kts | 19° |
| 2026-05-04 17:03 | -50.84789 | -65.92756 | 0 ft | 493 kts | 19° |
| 2026-05-04 17:03 | -50.81569 | -65.90869 | 0 ft | 493 kts | 19° |
| 2026-05-04 17:03 | -50.75151 | -65.87134 | 0 ft | 493 kts | 19° |
| 2026-05-04 17:04 | -50.68709 | -65.83393 | 0 ft | 493 kts | 19° |
| 2026-05-04 17:04 | -50.62258 | -65.79660 | 0 ft | 493 kts | 19° |
| 2026-05-04 17:05 | -50.55842 | -65.75957 | 0 ft | 493 kts | 19° |
| 2026-05-04 17:05 | -50.49389 | -65.72245 | 0 ft | 493 kts | 19° |
| 2026-05-04 17:06 | -50.42934 | -65.68541 | 0 ft | 493 kts | 18° |
| 2026-05-04 17:06 | -50.39745 | -65.66720 | 0 ft | 493 kts | 19° |
| 2026-05-04 17:07 | -50.33291 | -65.63034 | 0 ft | 493 kts | 19° |
| 2026-05-04 17:07 | -50.31154 | -65.61808 | 0 ft | 493 kts | 19° |
| 2026-05-04 17:07 | -50.26836 | -65.59356 | 0 ft | 493 kts | 19° |
| 2026-05-04 17:07 | -50.23601 | -65.57513 | 0 ft | 493 kts | 18° |
| 2026-05-04 17:08 | -50.20419 | -65.55710 | 0 ft | 493 kts | 19° |
| 2026-05-04 17:08 | -50.13959 | -65.52051 | 0 ft | 493 kts | 19° |
| 2026-05-04 17:08 | -50.10738 | -65.50230 | 0 ft | 493 kts | 18° |
| 2026-05-04 17:09 | -50.07493 | -65.48399 | 0 ft | 493 kts | 19° |
| 2026-05-04 17:09 | -50.04269 | -65.46582 | 0 ft | 493 kts | 18° |
| 2026-05-04 17:09 | -50.01084 | -65.44789 | 0 ft | 493 kts | 19° |
| 2026-05-04 17:10 | -49.94622 | -65.41160 | 0 ft | 493 kts | 19° |
| 2026-05-04 17:10 | -49.84934 | -65.35743 | 0 ft | 493 kts | 18° |
| 2026-05-04 17:11 | -49.81709 | -65.33938 | 0 ft | 493 kts | 18° |
| 2026-05-04 17:11 | -49.78474 | -65.32142 | 0 ft | 493 kts | 18° |
| 2026-05-04 17:11 | -49.72011 | -65.28549 | 0 ft | 493 kts | 18° |
| 2026-05-04 17:12 | -49.68782 | -65.26752 | 0 ft | 493 kts | 18° |
| 2026-05-04 17:12 | -49.62353 | -65.23193 | 0 ft | 493 kts | 18° |
| 2026-05-04 17:13 | -49.52665 | -65.17851 | 0 ft | 493 kts | 18° |
| 2026-05-04 17:14 | -49.42964 | -65.12519 | 0 ft | 493 kts | 18° |
| 2026-05-04 17:14 | -49.39730 | -65.10755 | 0 ft | 493 kts | 18° |
| 2026-05-04 17:14 | -49.33301 | -65.07240 | 0 ft | 493 kts | 18° |
| 2026-05-04 17:15 | -49.30064 | -65.05467 | 0 ft | 493 kts | 18° |
| 2026-05-04 17:15 | -49.23592 | -65.01942 | 0 ft | 493 kts | 18° |
| 2026-05-04 17:16 | -49.17116 | -64.98429 | 0 ft | 493 kts | 18° |
| 2026-05-04 17:16 | -49.07448 | -64.93209 | 0 ft | 493 kts | 18° |
| 2026-05-04 17:17 | -49.04207 | -64.91450 | 0 ft | 493 kts | 18° |
| 2026-05-04 17:17 | -48.94522 | -64.86247 | 0 ft | 493 kts | 18° |
| 2026-05-04 17:18 | -48.91287 | -64.84506 | 0 ft | 493 kts | 18° |
| 2026-05-04 17:18 | -48.84817 | -64.81041 | 0 ft | 493 kts | 18° |
| 2026-05-04 17:19 | -48.78327 | -64.77579 | 0 ft | 493 kts | 18° |
| 2026-05-04 17:19 | -48.71886 | -64.74154 | 0 ft | 493 kts | 18° |
| 2026-05-04 17:20 | -48.65398 | -64.70704 | 0 ft | 493 kts | 18° |
| 2026-05-04 17:20 | -48.58922 | -64.67274 | 0 ft | 493 kts | 18° |
| 2026-05-04 17:20 | -48.55678 | -64.65562 | 0 ft | 493 kts | 18° |
| 2026-05-04 17:21 | -48.49239 | -64.62160 | 0 ft | 493 kts | 18° |
| 2026-05-04 17:21 | -48.42756 | -64.58752 | 0 ft | 493 kts | 18° |
| 2026-05-04 17:22 | -48.39512 | -64.57051 | 0 ft | 493 kts | 18° |
| 2026-05-04 17:22 | -48.36275 | -64.55353 | 0 ft | 493 kts | 18° |
| 2026-05-04 17:23 | -48.26572 | -64.50283 | 0 ft | 493 kts | 18° |
| 2026-05-04 17:23 | -48.24420 | -64.49156 | 0 ft | 493 kts | 18° |
| 2026-05-04 17:23 | -48.16872 | -64.45229 | 0 ft | 493 kts | 18° |
| 2026-05-04 17:24 | -48.14715 | -64.44112 | 0 ft | 493 kts | 18° |
| 2026-05-04 17:24 | -48.04975 | -64.39058 | 0 ft | 493 kts | 18° |
| 2026-05-04 17:25 | -48.01723 | -64.37386 | 0 ft | 493 kts | 18° |
| 2026-05-04 17:25 | -47.95269 | -64.34057 | 0 ft | 493 kts | 18° |
| 2026-05-04 17:26 | -47.88783 | -64.30719 | 0 ft | 493 kts | 17° |
| 2026-05-04 17:26 | -47.79042 | -64.25719 | 0 ft | 493 kts | 18° |
| 2026-05-04 17:27 | -47.72590 | -64.22425 | 0 ft | 493 kts | 18° |
| 2026-05-04 17:27 | -47.66087 | -64.19109 | 0 ft | 493 kts | 18° |
| 2026-05-04 17:28 | -47.59589 | -64.15806 | 0 ft | 493 kts | 17° |
| 2026-05-04 17:29 | -47.49887 | -64.10898 | 0 ft | 493 kts | 17° |
| 2026-05-04 17:29 | -47.40152 | -64.05978 | 0 ft | 493 kts | 17° |
| 2026-05-04 17:30 | -47.30405 | -64.01084 | 0 ft | 493 kts | 17° |
| 2026-05-04 17:31 | -47.23904 | -63.97825 | 0 ft | 493 kts | 17° |
| 2026-05-04 17:31 | -47.14180 | -63.92969 | 0 ft | 493 kts | 17° |
| 2026-05-04 17:32 | -47.07699 | -63.89743 | 0 ft | 493 kts | 17° |
| 2026-05-04 17:33 | -46.97942 | -63.84897 | 0 ft | 493 kts | 17° |
| 2026-05-04 17:33 | -46.94727 | -63.83311 | 0 ft | 493 kts | 17° |
| 2026-05-04 17:34 | -46.84994 | -63.78500 | 0 ft | 493 kts | 17° |
| 2026-05-04 17:34 | -46.81740 | -63.76904 | 0 ft | 493 kts | 17° |
| 2026-05-04 17:35 | -46.72008 | -63.72117 | 0 ft | 493 kts | 17° |
| 2026-05-04 17:35 | -46.65508 | -63.68934 | 0 ft | 493 kts | 17° |
| 2026-05-04 17:35 | -46.62252 | -63.67350 | 0 ft | 493 kts | 17° |
| 2026-05-04 17:36 | -46.58996 | -63.65754 | 0 ft | 493 kts | 17° |
| 2026-05-04 17:36 | -46.55782 | -63.64194 | 0 ft | 493 kts | 17° |
| 2026-05-04 17:36 | -46.52526 | -63.62605 | 0 ft | 493 kts | 17° |
| 2026-05-04 17:36 | -46.49269 | -63.61022 | 0 ft | 493 kts | 17° |
| 2026-05-04 17:37 | -46.46014 | -63.59442 | 0 ft | 493 kts | 17° |
| 2026-05-04 17:37 | -46.42762 | -63.57864 | 0 ft | 493 kts | 17° |
| 2026-05-04 17:37 | -46.39501 | -63.56285 | 0 ft | 493 kts | 17° |
| 2026-05-04 17:37 | -46.36286 | -63.54728 | 0 ft | 493 kts | 17° |
| 2026-05-04 17:38 | -46.33024 | -63.53155 | 0 ft | 493 kts | 17° |
| 2026-05-04 17:38 | -46.29764 | -63.51578 | 0 ft | 493 kts | 17° |
| 2026-05-04 17:38 | -46.26538 | -63.50028 | 0 ft | 493 kts | 17° |
| 2026-05-04 17:38 | -46.23285 | -63.48456 | 0 ft | 493 kts | 17° |
| 2026-05-04 17:39 | -46.16759 | -63.45321 | 0 ft | 493 kts | 17° |
| 2026-05-04 17:39 | -46.13501 | -63.43766 | 0 ft | 493 kts | 17° |
| 2026-05-04 17:39 | -46.10246 | -63.42203 | 0 ft | 493 kts | 17° |
| 2026-05-04 17:40 | -46.06986 | -63.40640 | 0 ft | 493 kts | 17° |
| 2026-05-04 17:40 | -46.03761 | -63.39103 | 0 ft | 493 kts | 17° |
| 2026-05-04 17:40 | -46.00498 | -63.37544 | 0 ft | 493 kts | 17° |
| 2026-05-04 17:40 | -45.97238 | -63.35992 | 0 ft | 493 kts | 17° |
| 2026-05-04 17:41 | -45.93977 | -63.34439 | 0 ft | 493 kts | 17° |
| 2026-05-04 17:41 | -45.90718 | -63.32889 | 0 ft | 493 kts | 17° |
| 2026-05-04 17:41 | -45.87499 | -63.31364 | 0 ft | 493 kts | 17° |
| 2026-05-04 17:41 | -45.84239 | -63.29813 | 0 ft | 493 kts | 17° |
| 2026-05-04 17:42 | -45.80974 | -63.28273 | 0 ft | 493 kts | 17° |
| 2026-05-04 17:42 | -45.77711 | -63.26723 | 0 ft | 493 kts | 17° |
| 2026-05-04 17:42 | -45.74486 | -63.25200 | 0 ft | 493 kts | 17° |
| 2026-05-04 17:42 | -45.71225 | -63.23667 | 0 ft | 493 kts | 17° |
| 2026-05-04 17:43 | -45.67969 | -63.22125 | 0 ft | 493 kts | 17° |
| 2026-05-04 17:43 | -45.64709 | -63.20593 | 0 ft | 493 kts | 17° |
| 2026-05-04 17:43 | -45.61449 | -63.19061 | 0 ft | 493 kts | 17° |
| 2026-05-04 17:43 | -45.58191 | -63.17534 | 0 ft | 493 kts | 17° |
| 2026-05-04 17:44 | -45.54933 | -63.16000 | 0 ft | 493 kts | 17° |
| 2026-05-04 17:44 | -45.51709 | -63.14498 | 0 ft | 493 kts | 17° |
| 2026-05-04 17:44 | -45.48444 | -63.12963 | 0 ft | 493 kts | 17° |
| 2026-05-04 17:44 | -45.45166 | -63.11435 | 0 ft | 493 kts | 17° |
| 2026-05-04 17:45 | -45.41943 | -63.09926 | 0 ft | 493 kts | 17° |
| 2026-05-04 17:45 | -45.38686 | -63.08415 | 0 ft | 493 kts | 17° |
| 2026-05-04 17:45 | -45.35427 | -63.06891 | 0 ft | 493 kts | 17° |
| 2026-05-04 17:45 | -45.32162 | -63.05377 | 0 ft | 493 kts | 17° |
| 2026-05-04 17:46 | -45.28903 | -63.03860 | 0 ft | 493 kts | 17° |
| 2026-05-04 17:46 | -45.25634 | -63.02344 | 0 ft | 493 kts | 17° |
| 2026-05-04 17:46 | -45.22421 | -63.00855 | 0 ft | 493 kts | 17° |
| 2026-05-04 17:46 | -45.19141 | -62.99338 | 0 ft | 493 kts | 17° |
| 2026-05-04 17:47 | -45.15875 | -62.97829 | 0 ft | 493 kts | 17° |
| 2026-05-04 17:47 | -45.12646 | -62.96337 | 0 ft | 493 kts | 17° |
| 2026-05-04 17:47 | -45.09384 | -62.94835 | 0 ft | 493 kts | 17° |
| 2026-05-04 17:47 | -45.06108 | -62.93321 | 0 ft | 493 kts | 17° |
| 2026-05-04 17:48 | -45.02840 | -62.91824 | 0 ft | 493 kts | 17° |
| 2026-05-04 17:48 | -44.99575 | -62.90318 | 0 ft | 493 kts | 17° |
| 2026-05-04 17:48 | -44.96314 | -62.88827 | 0 ft | 493 kts | 17° |
| 2026-05-04 17:48 | -44.93052 | -62.87326 | 0 ft | 493 kts | 17° |
| 2026-05-04 17:49 | -44.89784 | -62.85836 | 0 ft | 493 kts | 17° |
| 2026-05-04 17:49 | -44.86559 | -62.84355 | 0 ft | 493 kts | 17° |
| 2026-05-04 17:49 | -44.83293 | -62.82869 | 0 ft | 493 kts | 17° |
| 2026-05-04 17:49 | -44.80026 | -62.81373 | 0 ft | 493 kts | 17° |
| 2026-05-04 17:50 | -44.76754 | -62.79888 | 0 ft | 493 kts | 17° |
| 2026-05-04 17:50 | -44.73496 | -62.78399 | 0 ft | 493 kts | 17° |
| 2026-05-04 17:50 | -44.70230 | -62.76921 | 0 ft | 493 kts | 17° |
| 2026-05-04 17:50 | -44.67004 | -62.75450 | 0 ft | 493 kts | 16° |
| 2026-05-04 17:51 | -44.63734 | -62.73973 | 0 ft | 493 kts | 17° |
| 2026-05-04 17:51 | -44.60471 | -62.72489 | 0 ft | 493 kts | 16° |
| 2026-05-04 17:51 | -44.57201 | -62.71014 | 0 ft | 493 kts | 17° |
| 2026-05-04 17:51 | -44.53938 | -62.69538 | 0 ft | 493 kts | 16° |
| 2026-05-04 17:52 | -44.50668 | -62.68065 | 0 ft | 493 kts | 17° |
| 2026-05-04 17:52 | -44.47403 | -62.66589 | 0 ft | 493 kts | 16° |
| 2026-05-04 17:52 | -44.44174 | -62.65136 | 0 ft | 493 kts | 17° |
| 2026-05-04 17:52 | -44.40900 | -62.63664 | 0 ft | 493 kts | 16° |
| 2026-05-04 17:53 | -44.37632 | -62.62194 | 0 ft | 493 kts | 17° |
| 2026-05-04 17:53 | -44.34398 | -62.60745 | 0 ft | 493 kts | 16° |
| 2026-05-04 17:53 | -44.31130 | -62.59279 | 0 ft | 493 kts | 17° |
| 2026-05-04 17:53 | -44.27859 | -62.57816 | 0 ft | 493 kts | 16° |
| 2026-05-04 17:54 | -44.24587 | -62.56350 | 0 ft | 493 kts | 17° |
| 2026-05-04 17:54 | -44.21345 | -62.54905 | 0 ft | 493 kts | 16° |
| 2026-05-04 17:54 | -44.18078 | -62.53442 | 0 ft | 493 kts | 16° |
| 2026-05-04 17:54 | -44.14808 | -62.51998 | 0 ft | 493 kts | 16° |
| 2026-05-04 17:55 | -44.11536 | -62.50532 | 0 ft | 493 kts | 16° |
| 2026-05-04 17:55 | -44.08262 | -62.49079 | 0 ft | 493 kts | 16° |
| 2026-05-04 17:55 | -44.04998 | -62.47626 | 0 ft | 493 kts | 16° |
| 2026-05-04 17:55 | -44.01769 | -62.46199 | 0 ft | 493 kts | 16° |
| 2026-05-04 17:56 | -43.98499 | -62.44745 | 0 ft | 493 kts | 16° |
| 2026-05-04 17:56 | -43.95221 | -62.43301 | 0 ft | 493 kts | 16° |
| 2026-05-04 17:56 | -43.91950 | -62.41848 | 0 ft | 493 kts | 16° |
| 2026-05-04 17:56 | -43.88679 | -62.40411 | 0 ft | 493 kts | 16° |
| 2026-05-04 17:57 | -43.85412 | -62.38964 | 0 ft | 493 kts | 16° |
| 2026-05-04 17:57 | -43.82145 | -62.37531 | 0 ft | 493 kts | 16° |
| 2026-05-04 17:57 | -43.78916 | -62.36104 | 0 ft | 493 kts | 16° |
| 2026-05-04 17:57 | -43.75642 | -62.34672 | 0 ft | 493 kts | 16° |
| 2026-05-04 17:58 | -43.72374 | -62.33230 | 0 ft | 493 kts | 16° |
| 2026-05-04 17:58 | -43.69101 | -62.31801 | 0 ft | 493 kts | 16° |
| 2026-05-04 17:58 | -43.65832 | -62.30367 | 0 ft | 493 kts | 16° |
| 2026-05-04 17:58 | -43.62565 | -62.28940 | 0 ft | 493 kts | 16° |
| 2026-05-04 17:59 | -43.59294 | -62.27505 | 0 ft | 493 kts | 16° |
| 2026-05-04 17:59 | -43.56020 | -62.26081 | 0 ft | 493 kts | 16° |
| 2026-05-04 17:59 | -43.49515 | -62.23250 | 0 ft | 493 kts | 16° |
| 2026-05-04 18:00 | -43.46243 | -62.21817 | 0 ft | 493 kts | 16° |
| 2026-05-04 18:00 | -43.42968 | -62.20403 | 0 ft | 493 kts | 16° |
| 2026-05-04 18:00 | -43.39730 | -62.18995 | 0 ft | 493 kts | 16° |
| 2026-05-04 18:00 | -43.36456 | -62.17575 | 0 ft | 493 kts | 16° |
| 2026-05-04 18:01 | -43.33185 | -62.16158 | 0 ft | 493 kts | 16° |
| 2026-05-04 18:01 | -43.29914 | -62.14744 | 0 ft | 493 kts | 16° |
| 2026-05-04 18:01 | -43.26639 | -62.13329 | 0 ft | 493 kts | 16° |
| 2026-05-04 18:02 | -43.20092 | -62.10505 | 0 ft | 493 kts | 16° |
| 2026-05-04 18:02 | -43.16824 | -62.09098 | 0 ft | 493 kts | 16° |
| 2026-05-04 18:02 | -43.13544 | -62.07686 | 0 ft | 493 kts | 16° |
| 2026-05-04 18:02 | -43.10315 | -62.06300 | 0 ft | 493 kts | 16° |
| 2026-05-04 18:03 | -43.07043 | -62.04897 | 0 ft | 493 kts | 16° |
| 2026-05-04 18:03 | -43.03773 | -62.03494 | 0 ft | 493 kts | 16° |
| 2026-05-04 18:03 | -43.00488 | -62.02086 | 0 ft | 493 kts | 16° |
| 2026-05-04 18:03 | -42.97209 | -62.00686 | 0 ft | 493 kts | 16° |
| 2026-05-04 18:04 | -42.93936 | -61.99290 | 0 ft | 493 kts | 16° |
| 2026-05-04 18:04 | -42.90660 | -61.97890 | 0 ft | 493 kts | 16° |
| 2026-05-04 18:04 | -42.84145 | -61.95115 | 0 ft | 493 kts | 16° |
| 2026-05-04 18:05 | -42.80868 | -61.93719 | 0 ft | 493 kts | 16° |
| 2026-05-04 18:05 | -42.77584 | -61.92328 | 0 ft | 493 kts | 16° |
| 2026-05-04 18:05 | -42.74342 | -61.90946 | 0 ft | 493 kts | 16° |
| 2026-05-04 18:05 | -42.71072 | -61.89566 | 0 ft | 493 kts | 16° |
| 2026-05-04 18:06 | -42.64523 | -61.86794 | 0 ft | 493 kts | 16° |
| 2026-05-04 18:06 | -42.61248 | -61.85408 | 0 ft | 493 kts | 16° |
| 2026-05-04 18:06 | -42.57973 | -61.84024 | 0 ft | 493 kts | 16° |
| 2026-05-04 18:07 | -42.54700 | -61.82648 | 0 ft | 493 kts | 16° |
| 2026-05-04 18:07 | -42.51463 | -61.81281 | 0 ft | 493 kts | 16° |
| 2026-05-04 18:07 | -42.48188 | -61.79907 | 0 ft | 493 kts | 16° |
| 2026-05-04 18:07 | -42.44916 | -61.78526 | 0 ft | 493 kts | 16° |
| 2026-05-04 18:08 | -42.41633 | -61.77155 | 0 ft | 493 kts | 16° |
| 2026-05-04 18:08 | -42.38354 | -61.75775 | 0 ft | 493 kts | 16° |
| 2026-05-04 18:08 | -42.35073 | -61.74407 | 0 ft | 493 kts | 16° |
| 2026-05-04 18:08 | -42.31793 | -61.73028 | 0 ft | 493 kts | 16° |
| 2026-05-04 18:09 | -42.25268 | -61.70302 | 0 ft | 493 kts | 15° |
| 2026-05-04 18:09 | -42.18703 | -61.67566 | 0 ft | 493 kts | 15° |
| 2026-05-04 18:10 | -42.15462 | -61.66224 | 0 ft | 493 kts | 16° |
| 2026-05-04 18:10 | -42.12186 | -61.64856 | 0 ft | 493 kts | 15° |
| 2026-05-04 18:10 | -42.08905 | -61.63500 | 0 ft | 493 kts | 16° |
| 2026-05-04 18:10 | -42.05625 | -61.62134 | 0 ft | 493 kts | 15° |
| 2026-05-04 18:11 | -42.02346 | -61.60781 | 0 ft | 493 kts | 15° |
| 2026-05-04 18:11 | -41.99062 | -61.59416 | 0 ft | 493 kts | 15° |
| 2026-05-04 18:11 | -41.95789 | -61.58070 | 0 ft | 493 kts | 16° |
| 2026-05-04 18:11 | -41.92546 | -61.56725 | 0 ft | 493 kts | 15° |
| 2026-05-04 18:12 | -41.89261 | -61.55374 | 0 ft | 493 kts | 15° |
| 2026-05-04 18:12 | -41.85977 | -61.54017 | 0 ft | 493 kts | 15° |
| 2026-05-04 18:12 | -41.82702 | -61.52673 | 0 ft | 493 kts | 15° |
| 2026-05-04 18:12 | -41.79418 | -61.51319 | 0 ft | 493 kts | 15° |
| 2026-05-04 18:13 | -41.76138 | -61.49974 | 0 ft | 493 kts | 15° |
| 2026-05-04 18:13 | -41.72859 | -61.48626 | 0 ft | 493 kts | 15° |
| 2026-05-04 18:13 | -41.66339 | -61.45955 | 0 ft | 493 kts | 15° |
| 2026-05-04 18:14 | -41.63062 | -61.44618 | 0 ft | 493 kts | 15° |
| 2026-05-04 18:14 | -41.59776 | -61.43273 | 0 ft | 493 kts | 15° |
| 2026-05-04 18:14 | -41.56483 | -61.41931 | 0 ft | 493 kts | 15° |
| 2026-05-04 18:15 | -41.49963 | -61.39273 | 0 ft | 493 kts | 15° |
| 2026-05-04 18:15 | -41.43388 | -61.36599 | 0 ft | 493 kts | 15° |
| 2026-05-04 18:15 | -41.40104 | -61.35267 | 0 ft | 493 kts | 15° |
| 2026-05-04 18:16 | -41.36823 | -61.33935 | 0 ft | 493 kts | 15° |
| 2026-05-04 18:16 | -41.33576 | -61.32621 | 0 ft | 493 kts | 15° |
| 2026-05-04 18:16 | -41.30287 | -61.31289 | 0 ft | 493 kts | 15° |
| 2026-05-04 18:17 | -41.23714 | -61.28632 | 0 ft | 493 kts | 15° |
| 2026-05-04 18:17 | -41.20431 | -61.27311 | 0 ft | 493 kts | 15° |
| 2026-05-04 18:17 | -41.13871 | -61.24670 | 0 ft | 493 kts | 15° |
| 2026-05-04 18:18 | -41.10590 | -61.23345 | 0 ft | 493 kts | 15° |
| 2026-05-04 18:18 | -41.07343 | -61.22046 | 0 ft | 493 kts | 15° |
| 2026-05-04 18:18 | -41.04061 | -61.20723 | 0 ft | 493 kts | 15° |
| 2026-05-04 18:18 | -41.00771 | -61.19410 | 0 ft | 493 kts | 15° |
| 2026-05-04 18:19 | -40.94201 | -61.16780 | 0 ft | 493 kts | 15° |
| 2026-05-04 18:19 | -40.90911 | -61.15459 | 0 ft | 493 kts | 15° |
| 2026-05-04 18:19 | -40.87628 | -61.14155 | 0 ft | 493 kts | 15° |
| 2026-05-04 18:20 | -40.84381 | -61.12855 | 0 ft | 493 kts | 15° |
| 2026-05-04 18:20 | -40.81093 | -61.11550 | 0 ft | 493 kts | 15° |
| 2026-05-04 18:20 | -40.77803 | -61.10234 | 0 ft | 493 kts | 15° |
| 2026-05-04 18:20 | -40.74549 | -61.08947 | 0 ft | 493 kts | 15° |
| 2026-05-04 18:21 | -40.71253 | -61.07631 | 0 ft | 493 kts | 15° |
| 2026-05-04 18:21 | -40.67958 | -61.06331 | 0 ft | 493 kts | 15° |
| 2026-05-04 18:21 | -40.64711 | -61.05039 | 0 ft | 493 kts | 15° |
| 2026-05-04 18:21 | -40.61422 | -61.03740 | 0 ft | 493 kts | 15° |
| 2026-05-04 18:22 | -40.58140 | -61.02438 | 0 ft | 493 kts | 15° |
| 2026-05-04 18:22 | -40.54853 | -61.01143 | 0 ft | 493 kts | 15° |
| 2026-05-04 18:22 | -40.51567 | -60.99842 | 0 ft | 493 kts | 15° |
| 2026-05-04 18:22 | -40.48271 | -60.98547 | 0 ft | 493 kts | 15° |
| 2026-05-04 18:23 | -40.45032 | -60.97266 | 0 ft | 493 kts | 15° |
| 2026-05-04 18:23 | -40.41737 | -60.95974 | 0 ft | 493 kts | 15° |
| 2026-05-04 18:23 | -40.38455 | -60.94679 | 0 ft | 493 kts | 15° |
| 2026-05-04 18:23 | -40.35168 | -60.93392 | 0 ft | 493 kts | 15° |
| 2026-05-04 18:24 | -40.31880 | -60.92099 | 0 ft | 493 kts | 15° |
| 2026-05-04 18:24 | -40.28595 | -60.90814 | 0 ft | 493 kts | 15° |
| 2026-05-04 18:24 | -40.26413 | -60.89960 | 0 ft | 493 kts | 15° |
| 2026-05-04 18:24 | -40.23127 | -60.88673 | 0 ft | 493 kts | 15° |
| 2026-05-04 18:25 | -40.19842 | -60.87387 | 0 ft | 493 kts | 15° |
| 2026-05-04 18:25 | -40.15486 | -60.85687 | 0 ft | 493 kts | 15° |
| 2026-05-04 18:25 | -40.12199 | -60.84407 | 0 ft | 493 kts | 15° |
| 2026-05-04 18:25 | -40.09979 | -60.83541 | 0 ft | 493 kts | 15° |
| 2026-05-04 18:26 | -40.06694 | -60.82262 | 0 ft | 493 kts | 15° |
| 2026-05-04 18:26 | -40.03408 | -60.80988 | 0 ft | 493 kts | 15° |
| 2026-05-04 18:26 | -40.00122 | -60.79710 | 0 ft | 493 kts | 15° |
| 2026-05-04 18:26 | -39.96876 | -60.78446 | 0 ft | 493 kts | 15° |
| 2026-05-04 18:27 | -39.93588 | -60.77176 | 0 ft | 492 kts | 15° |
| 2026-05-04 18:27 | -39.90289 | -60.75892 | 0 ft | 493 kts | 15° |
| 2026-05-04 18:27 | -39.86992 | -60.74622 | 0 ft | 493 kts | 15° |
| 2026-05-04 18:27 | -39.83747 | -60.73363 | 0 ft | 493 kts | 15° |
| 2026-05-04 18:28 | -39.80450 | -60.72093 | 0 ft | 493 kts | 15° |
| 2026-05-04 18:28 | -39.77161 | -60.70821 | 0 ft | 493 kts | 15° |
| 2026-05-04 18:28 | -39.73867 | -60.69557 | 0 ft | 492 kts | 15° |
| 2026-05-04 18:28 | -39.70580 | -60.68288 | 0 ft | 493 kts | 15° |
| 2026-05-04 18:29 | -39.67292 | -60.67022 | 0 ft | 493 kts | 15° |
| 2026-05-04 18:29 | -39.64006 | -60.65760 | 0 ft | 493 kts | 15° |
| 2026-05-04 18:29 | -39.60756 | -60.64511 | 0 ft | 492 kts | 15° |
| 2026-05-04 18:29 | -39.57467 | -60.63255 | 0 ft | 492 kts | 15° |
| 2026-05-04 18:30 | -39.50875 | -60.60726 | 0 ft | 493 kts | 15° |
| 2026-05-04 18:30 | -39.47576 | -60.59467 | 0 ft | 492 kts | 15° |
| 2026-05-04 18:30 | -39.44321 | -60.58220 | 0 ft | 493 kts | 15° |
| 2026-05-04 18:31 | -39.41036 | -60.56971 | 0 ft | 493 kts | 15° |
| 2026-05-04 18:31 | -39.37741 | -60.55710 | 0 ft | 493 kts | 15° |
| 2026-05-04 18:31 | -39.34481 | -60.54473 | 0 ft | 492 kts | 15° |
| 2026-05-04 18:31 | -39.31150 | -60.53201 | 0 ft | 493 kts | 15° |
| 2026-05-04 18:32 | -39.27897 | -60.51969 | 0 ft | 492 kts | 15° |
| 2026-05-04 18:32 | -39.24601 | -60.50712 | 0 ft | 492 kts | 15° |
| 2026-05-04 18:32 | -39.21312 | -60.49470 | 0 ft | 492 kts | 15° |
| 2026-05-04 18:32 | -39.18026 | -60.48221 | 0 ft | 493 kts | 15° |
| 2026-05-04 18:33 | -39.14734 | -60.46978 | 0 ft | 492 kts | 15° |
| 2026-05-04 18:33 | -39.11448 | -60.45731 | 0 ft | 492 kts | 15° |
| 2026-05-04 18:33 | -39.08200 | -60.44506 | 0 ft | 493 kts | 15° |
| 2026-05-04 18:33 | -39.04898 | -60.43259 | 0 ft | 492 kts | 15° |
| 2026-05-04 18:34 | -39.01616 | -60.42020 | 0 ft | 492 kts | 15° |
| 2026-05-04 18:34 | -38.98312 | -60.40777 | 0 ft | 492 kts | 15° |
| 2026-05-04 18:34 | -38.95052 | -60.39546 | 0 ft | 493 kts | 15° |
| 2026-05-04 18:34 | -38.91760 | -60.38313 | 0 ft | 492 kts | 15° |
| 2026-05-04 18:35 | -38.88465 | -60.37069 | 0 ft | 492 kts | 15° |
| 2026-05-04 18:35 | -38.85176 | -60.35839 | 0 ft | 493 kts | 15° |
| 2026-05-04 18:35 | -38.81920 | -60.34617 | 0 ft | 493 kts | 15° |
| 2026-05-04 18:35 | -38.78629 | -60.33384 | 0 ft | 492 kts | 15° |
| 2026-05-04 18:36 | -38.75341 | -60.32154 | 0 ft | 492 kts | 15° |
| 2026-05-04 18:36 | -38.72045 | -60.30918 | 0 ft | 493 kts | 15° |
| 2026-05-04 18:36 | -38.68751 | -60.29693 | 0 ft | 492 kts | 15° |
| 2026-05-04 18:36 | -38.65451 | -60.28455 | 0 ft | 492 kts | 15° |
| 2026-05-04 18:37 | -38.62158 | -60.27234 | 0 ft | 493 kts | 15° |
| 2026-05-04 18:37 | -38.58864 | -60.26004 | 0 ft | 492 kts | 15° |
| 2026-05-04 18:37 | -38.55568 | -60.24781 | 0 ft | 492 kts | 15° |
| 2026-05-04 18:37 | -38.52311 | -60.23564 | 0 ft | 493 kts | 14° |
| 2026-05-04 18:38 | -38.49005 | -60.22343 | 0 ft | 492 kts | 15° |
| 2026-05-04 18:38 | -38.45703 | -60.21111 | 0 ft | 492 kts | 15° |
| 2026-05-04 18:38 | -38.42454 | -60.19909 | 0 ft | 492 kts | 15° |
| 2026-05-04 18:38 | -38.39165 | -60.18689 | 0 ft | 493 kts | 15° |
| 2026-05-04 18:39 | -38.35855 | -60.17468 | 0 ft | 492 kts | 14° |
| 2026-05-04 18:39 | -38.32560 | -60.16247 | 0 ft | 492 kts | 15° |
| 2026-05-04 18:39 | -38.29306 | -60.15049 | 0 ft | 493 kts | 15° |
| 2026-05-04 18:39 | -38.26013 | -60.13829 | 0 ft | 492 kts | 15° |
| 2026-05-04 18:40 | -38.22718 | -60.12619 | 0 ft | 492 kts | 15° |
| 2026-05-04 18:40 | -38.19413 | -60.11396 | 0 ft | 492 kts | 15° |
| 2026-05-04 18:40 | -38.16114 | -60.10189 | 0 ft | 492 kts | 14° |
| 2026-05-04 18:40 | -38.12824 | -60.08976 | 0 ft | 492 kts | 15° |
| 2026-05-04 18:41 | -38.09571 | -60.07783 | 0 ft | 492 kts | 14° |
| 2026-05-04 18:41 | -38.06276 | -60.06573 | 0 ft | 492 kts | 15° |
| 2026-05-04 18:41 | -38.02971 | -60.05360 | 0 ft | 492 kts | 14° |
| 2026-05-04 18:41 | -37.99667 | -60.04152 | 0 ft | 492 kts | 15° |
| 2026-05-04 18:42 | -37.96402 | -60.02957 | 0 ft | 492 kts | 14° |
| 2026-05-04 18:42 | -37.93108 | -60.01752 | 0 ft | 492 kts | 14° |
| 2026-05-04 18:42 | -37.89810 | -60.00550 | 0 ft | 492 kts | 15° |
| 2026-05-04 18:42 | -37.86510 | -59.99343 | 0 ft | 492 kts | 14° |
| 2026-05-04 18:43 | -37.83219 | -59.98146 | 0 ft | 492 kts | 14° |
| 2026-05-04 18:43 | -37.79914 | -59.96943 | 0 ft | 492 kts | 14° |
| 2026-05-04 18:43 | -37.76663 | -59.95757 | 0 ft | 492 kts | 14° |
| 2026-05-04 18:43 | -37.73365 | -59.94561 | 0 ft | 492 kts | 15° |
| 2026-05-04 18:44 | -37.70071 | -59.93363 | 0 ft | 492 kts | 14° |
| 2026-05-04 18:44 | -37.67845 | -59.92559 | 0 ft | 492 kts | 15° |
| 2026-05-04 18:44 | -37.63477 | -59.90974 | 0 ft | 492 kts | 14° |
| 2026-05-04 18:44 | -37.60183 | -59.89779 | 0 ft | 492 kts | 15° |
| 2026-05-04 18:45 | -37.56881 | -59.88585 | 0 ft | 492 kts | 14° |
| 2026-05-04 18:45 | -37.53579 | -59.87390 | 0 ft | 492 kts | 14° |
| 2026-05-04 18:45 | -37.50320 | -59.86216 | 0 ft | 492 kts | 14° |
| 2026-05-04 18:45 | -37.47018 | -59.85021 | 0 ft | 492 kts | 14° |
| 2026-05-04 18:46 | -37.43704 | -59.83830 | 0 ft | 492 kts | 14° |
| 2026-05-04 18:46 | -37.40413 | -59.82641 | 0 ft | 492 kts | 14° |
| 2026-05-04 18:46 | -37.37113 | -59.81458 | 0 ft | 492 kts | 14° |
| 2026-05-04 18:46 | -37.33856 | -59.80282 | 0 ft | 492 kts | 14° |
| 2026-05-04 18:47 | -37.30558 | -59.79103 | 0 ft | 492 kts | 14° |
| 2026-05-04 18:47 | -37.27253 | -59.77912 | 0 ft | 492 kts | 14° |
| 2026-05-04 18:47 | -37.23956 | -59.76736 | 0 ft | 492 kts | 14° |
| 2026-05-04 18:47 | -37.20656 | -59.75551 | 0 ft | 492 kts | 14° |
| 2026-05-04 18:48 | -37.17405 | -59.74386 | 0 ft | 492 kts | 14° |
| 2026-05-04 18:48 | -37.14105 | -59.73205 | 0 ft | 492 kts | 14° |
| 2026-05-04 18:48 | -37.10806 | -59.72029 | 0 ft | 492 kts | 14° |
| 2026-05-04 18:48 | -37.07506 | -59.70852 | 0 ft | 492 kts | 14° |
| 2026-05-04 18:49 | -37.04206 | -59.69673 | 0 ft | 492 kts | 14° |
| 2026-05-04 18:49 | -37.00912 | -59.68502 | 0 ft | 492 kts | 14° |
| 2026-05-04 18:49 | -36.97616 | -59.67325 | 0 ft | 492 kts | 14° |
| 2026-05-04 18:49 | -36.94318 | -59.66158 | 0 ft | 492 kts | 14° |
| 2026-05-04 18:50 | -36.91022 | -59.64981 | 0 ft | 492 kts | 14° |
| 2026-05-04 18:50 | -36.87721 | -59.63815 | 0 ft | 492 kts | 14° |
| 2026-05-04 18:50 | -36.84417 | -59.62637 | 0 ft | 492 kts | 14° |
| 2026-05-04 18:50 | -36.81165 | -59.61491 | 0 ft | 492 kts | 14° |
| 2026-05-04 18:51 | -36.77864 | -59.60317 | 0 ft | 492 kts | 14° |
| 2026-05-04 18:51 | -36.74569 | -59.59157 | 0 ft | 492 kts | 14° |
| 2026-05-04 18:51 | -36.71227 | -59.57970 | 0 ft | 492 kts | 14° |
| 2026-05-04 18:51 | -36.67967 | -59.56824 | 0 ft | 492 kts | 14° |
| 2026-05-04 18:52 | -36.64662 | -59.55654 | 0 ft | 492 kts | 14° |
| 2026-05-04 18:52 | -36.61360 | -59.54494 | 0 ft | 492 kts | 14° |
| 2026-05-04 18:52 | -36.58063 | -59.53330 | 0 ft | 492 kts | 14° |
| 2026-05-04 18:52 | -36.54764 | -59.52172 | 0 ft | 492 kts | 14° |
| 2026-05-04 18:53 | -36.51472 | -59.51013 | 0 ft | 492 kts | 14° |